Pomme de Terre River (Missouri), Hermitage (06921350)

StateMissouriLatestHigh (2430 cfs)
RiverPomme de Terre RiverRatingObservedEstimated
Updated2026-05-05 7:45 (48 minutes ago)Flood - The river is flooding. Obstacles can be treacherous or deadly. The river should be avoided at this stage for casual trips and definitely for the inexperienced. Trips should be attempted only with protective gear and equipment.Flood(none)3126
Discharge2430 cfs (median: 594 cfs)High - The river is high and potentially dangerous, especially for the young and / or inexperienced. Normal stream obstacles are sometimes difficult to navigate. Extended distances can be attempted, but canoe travel may not be advisable.High(none)1814
Height7.6 feetGood - Conditions are ideal for a canoe or kayak. Boats typically will drag on fewer than one-quarter of riffles, if at all, and portages are unnecessary or rare. Normal float lengths can be attempted without a problem.Good(none)379
TrendFalling (falling over 24 hours)Low - River is low but can still be floated. Some riffles are okay but most come with significant dragging and might need a portage. Float lengths should be reduced to accommodate low flow, dragging, and portages.Low(none)269
USGSExternal icon USGS Site (External icon Duck Duck Go Maps)Poor - River is too low to float comfortably. Most or all riffles will drag or must be portaged and some obstacles (such as slick shelf rock) cause undue problems. Avoid the river at this stage for casual paddling trips.Poor(none)65

Trending Data

Plot Image

Trips for Pomme de Terre River (Missouri), Hermitage (06921350)

DateStartEndDistanceConditionDischargeHeightFishingDetails

A total of 0 rows are displayed.

Condition Descriptions

Fishing Conditions

Fish Species

Notes

Classic Trip List

The classic River Trips application is still available for use. It is updated with the new system using a data retrofit. It is no longer maintained. The original River Trips application is no longer updated (as of 1 Dec 2016) but can be checked for errors or for the condition of the data before it was converted to the new system.

Gauge Data Table

ObservationHeightDischargeMaximum
Discharge
Minimum
Discharge
Mean
Discharge
P05P10P20P25P50
(Median)
P75P80P90P95
2026-05-05 07:45 7.60 2430 5110 (1961) 27 (1963) 1120 47 54 110 126 594 2010 2130 3170 3540
2026-05-05 06:45 7.61 2440 5110 (1961) 27 (1963) 1120 47 54 110 126 594 2010 2130 3170 3540
2026-05-05 05:45 7.61 2440 5110 (1961) 27 (1963) 1120 47 54 110 126 594 2010 2130 3170 3540
2026-05-05 04:45 7.60 2430 5110 (1961) 27 (1963) 1120 47 54 110 126 594 2010 2130 3170 3540
2026-05-05 03:45 7.61 2440 5110 (1961) 27 (1963) 1120 47 54 110 126 594 2010 2130 3170 3540
2026-05-05 02:45 7.59 2420 5110 (1961) 27 (1963) 1120 47 54 110 126 594 2010 2130 3170 3540
2026-05-05 01:45 7.59 2420 5110 (1961) 27 (1963) 1120 47 54 110 126 594 2010 2130 3170 3540
2026-05-05 00:45 7.59 2420 5110 (1961) 27 (1963) 1120 47 54 110 126 594 2010 2130 3170 3540
2026-05-04 23:45 7.60 2430 5110 (1961) 27 (1963) 1120 47 54 110 126 594 2010 2130 3170 3540
2026-05-04 22:45 7.59 2420 5210 (1961) 44 (1975) 1050 51 56 109 119 591 1730 2030 2930 3610
2026-05-04 21:45 7.60 2430 5210 (1961) 44 (1975) 1050 51 56 109 119 591 1730 2030 2930 3610
2026-05-04 20:45 7.60 2430 5210 (1961) 44 (1975) 1050 51 56 109 119 591 1730 2030 2930 3610
2026-05-04 19:45 7.59 2420 5210 (1961) 44 (1975) 1050 51 56 109 119 591 1730 2030 2930 3610
2026-05-04 18:45 7.60 2430 5210 (1961) 44 (1975) 1050 51 56 109 119 591 1730 2030 2930 3610
2026-05-04 17:45 7.61 2440 5210 (1961) 44 (1975) 1050 51 56 109 119 591 1730 2030 2930 3610
2026-05-04 16:45 7.65 2470 5210 (1961) 44 (1975) 1050 51 56 109 119 591 1730 2030 2930 3610
2026-05-04 15:45 7.91 2680 5210 (1961) 44 (1975) 1050 51 56 109 119 591 1730 2030 2930 3610
2026-05-04 14:45 8.23 2950 5210 (1961) 44 (1975) 1050 51 56 109 119 591 1730 2030 2930 3610
2026-05-04 13:45 8.24 2960 5210 (1961) 44 (1975) 1050 51 56 109 119 591 1730 2030 2930 3610
2026-05-04 12:45 8.24 2960 5210 (1961) 44 (1975) 1050 51 56 109 119 591 1730 2030 2930 3610
2026-05-04 11:45 8.23 2950 5210 (1961) 44 (1975) 1050 51 56 109 119 591 1730 2030 2930 3610
2026-05-04 10:45 8.23 2950 5210 (1961) 44 (1975) 1050 51 56 109 119 591 1730 2030 2930 3610
2026-05-04 09:45 8.23 2950 5210 (1961) 44 (1975) 1050 51 56 109 119 591 1730 2030 2930 3610
2026-05-04 08:45 8.23 2950 5210 (1961) 44 (1975) 1050 51 56 109 119 591 1730 2030 2930 3610
2026-05-04 07:45 8.24 2960 5210 (1961) 44 (1975) 1050 51 56 109 119 591 1730 2030 2930 3610
2026-05-04 06:45 8.23 2950 5210 (1961) 44 (1975) 1050 51 56 109 119 591 1730 2030 2930 3610
2026-05-04 05:45 8.23 2950 5210 (1961) 44 (1975) 1050 51 56 109 119 591 1730 2030 2930 3610
2026-05-04 04:45 8.23 2950 5210 (1961) 44 (1975) 1050 51 56 109 119 591 1730 2030 2930 3610
2026-05-04 03:45 8.24 2960 5210 (1961) 44 (1975) 1050 51 56 109 119 591 1730 2030 2930 3610
2026-05-04 02:45 8.24 2960 5210 (1961) 44 (1975) 1050 51 56 109 119 591 1730 2030 2930 3610
2026-05-04 01:45 8.25 2970 5210 (1961) 44 (1975) 1050 51 56 109 119 591 1730 2030 2930 3610
2026-05-04 00:45 8.24 2960 5210 (1961) 44 (1975) 1050 51 56 109 119 591 1730 2030 2930 3610
2026-05-03 23:45 8.25 2970 5210 (1961) 44 (1975) 1050 51 56 109 119 591 1730 2030 2930 3610
2026-05-03 22:45 8.25 2970 5910 (1961) 29 (1963) 1040 47 53 106 113 488 1590 2060 2950 3620
2026-05-03 21:45 8.23 2950 5910 (1961) 29 (1963) 1040 47 53 106 113 488 1590 2060 2950 3620
2026-05-03 20:45 8.24 2960 5910 (1961) 29 (1963) 1040 47 53 106 113 488 1590 2060 2950 3620
2026-05-03 19:45 8.23 2950 5910 (1961) 29 (1963) 1040 47 53 106 113 488 1590 2060 2950 3620
2026-05-03 18:45 8.23 2950 5910 (1961) 29 (1963) 1040 47 53 106 113 488 1590 2060 2950 3620
2026-05-03 17:45 8.25 2970 5910 (1961) 29 (1963) 1040 47 53 106 113 488 1590 2060 2950 3620
2026-05-03 16:45 8.25 2970 5910 (1961) 29 (1963) 1040 47 53 106 113 488 1590 2060 2950 3620
2026-05-03 15:45 8.24 2960 5910 (1961) 29 (1963) 1040 47 53 106 113 488 1590 2060 2950 3620
2026-05-03 14:45 8.25 2970 5910 (1961) 29 (1963) 1040 47 53 106 113 488 1590 2060 2950 3620
2026-05-03 13:45 8.26 2980 5910 (1961) 29 (1963) 1040 47 53 106 113 488 1590 2060 2950 3620
2026-05-03 12:45 8.25 2970 5910 (1961) 29 (1963) 1040 47 53 106 113 488 1590 2060 2950 3620
2026-05-03 11:45 8.25 2970 5910 (1961) 29 (1963) 1040 47 53 106 113 488 1590 2060 2950 3620
2026-05-03 10:45 8.24 2960 5910 (1961) 29 (1963) 1040 47 53 106 113 488 1590 2060 2950 3620
2026-05-03 09:45 8.25 2970 5910 (1961) 29 (1963) 1040 47 53 106 113 488 1590 2060 2950 3620
2026-05-03 08:45 8.26 2980 5910 (1961) 29 (1963) 1040 47 53 106 113 488 1590 2060 2950 3620
2026-05-03 07:45 8.25 2970 5910 (1961) 29 (1963) 1040 47 53 106 113 488 1590 2060 2950 3620
2026-05-03 06:45 8.25 2970 5910 (1961) 29 (1963) 1040 47 53 106 113 488 1590 2060 2950 3620
2026-05-03 05:45 8.25 2970 5910 (1961) 29 (1963) 1040 47 53 106 113 488 1590 2060 2950 3620
2026-05-03 04:45 8.25 2970 5910 (1961) 29 (1963) 1040 47 53 106 113 488 1590 2060 2950 3620
2026-05-03 03:45 8.25 2970 5910 (1961) 29 (1963) 1040 47 53 106 113 488 1590 2060 2950 3620
2026-05-03 02:45 8.26 2980 5910 (1961) 29 (1963) 1040 47 53 106 113 488 1590 2060 2950 3620
2026-05-03 01:45 8.24 2960 5910 (1961) 29 (1963) 1040 47 53 106 113 488 1590 2060 2950 3620
2026-05-03 00:45 8.25 2970 5910 (1961) 29 (1963) 1040 47 53 106 113 488 1590 2060 2950 3620
2026-05-02 23:45 8.25 2970 5910 (1961) 29 (1963) 1040 47 53 106 113 488 1590 2060 2950 3620
2026-05-02 22:45 8.26 2980 6890 (1961) 29 (1963) 1100 47 53 106 110 517 1810 2260 2970 3630
2026-05-02 21:45 8.25 2970 6890 (1961) 29 (1963) 1100 47 53 106 110 517 1810 2260 2970 3630
2026-05-02 20:45 8.27 2990 6890 (1961) 29 (1963) 1100 47 53 106 110 517 1810 2260 2970 3630
2026-05-02 19:45 8.26 2980 6890 (1961) 29 (1963) 1100 47 53 106 110 517 1810 2260 2970 3630
2026-05-02 18:45 8.27 2990 6890 (1961) 29 (1963) 1100 47 53 106 110 517 1810 2260 2970 3630
2026-05-02 17:45 8.26 2980 6890 (1961) 29 (1963) 1100 47 53 106 110 517 1810 2260 2970 3630
2026-05-02 16:45 8.25 2970 6890 (1961) 29 (1963) 1100 47 53 106 110 517 1810 2260 2970 3630
2026-05-02 15:45 8.25 2970 6890 (1961) 29 (1963) 1100 47 53 106 110 517 1810 2260 2970 3630
2026-05-02 14:45 8.26 2980 6890 (1961) 29 (1963) 1100 47 53 106 110 517 1810 2260 2970 3630
2026-05-02 13:45 8.26 2980 6890 (1961) 29 (1963) 1100 47 53 106 110 517 1810 2260 2970 3630
2026-05-02 12:45 8.27 2990 6890 (1961) 29 (1963) 1100 47 53 106 110 517 1810 2260 2970 3630
2026-05-02 11:45 8.26 2980 6890 (1961) 29 (1963) 1100 47 53 106 110 517 1810 2260 2970 3630
2026-05-02 10:45 8.27 2990 6890 (1961) 29 (1963) 1100 47 53 106 110 517 1810 2260 2970 3630
2026-05-02 09:45 8.27 2990 6890 (1961) 29 (1963) 1100 47 53 106 110 517 1810 2260 2970 3630
2026-05-02 08:45 8.26 2980 6890 (1961) 29 (1963) 1100 47 53 106 110 517 1810 2260 2970 3630
2026-05-02 07:45 8.25 2970 6890 (1961) 29 (1963) 1100 47 53 106 110 517 1810 2260 2970 3630
2026-05-02 06:45 8.26 2980 6890 (1961) 29 (1963) 1100 47 53 106 110 517 1810 2260 2970 3630
2026-05-02 05:45 8.26 2980 6890 (1961) 29 (1963) 1100 47 53 106 110 517 1810 2260 2970 3630
2026-05-02 04:45 8.26 2980 6890 (1961) 29 (1963) 1100 47 53 106 110 517 1810 2260 2970 3630
2026-05-02 03:45 8.27 2990 6890 (1961) 29 (1963) 1100 47 53 106 110 517 1810 2260 2970 3630
2026-05-02 02:45 8.26 2980 6890 (1961) 29 (1963) 1100 47 53 106 110 517 1810 2260 2970 3630
2026-05-02 01:45 8.27 2990 6890 (1961) 29 (1963) 1100 47 53 106 110 517 1810 2260 2970 3630
2026-05-02 00:45 8.26 2980 6890 (1961) 29 (1963) 1100 47 53 106 110 517 1810 2260 2970 3630
2026-05-01 23:45 8.26 2980 6890 (1961) 29 (1963) 1100 47 53 106 110 517 1810 2260 2970 3630
2026-05-01 22:45 8.27 2990 5910 (1961) 29 (1963) 1110 44 52 94 107 453 2010 2510 3080 3640
2026-05-01 21:45 8.26 2980 5910 (1961) 29 (1963) 1110 44 52 94 107 453 2010 2510 3080 3640
2026-05-01 20:45 8.26 2980 5910 (1961) 29 (1963) 1110 44 52 94 107 453 2010 2510 3080 3640
2026-05-01 19:45 8.27 2990 5910 (1961) 29 (1963) 1110 44 52 94 107 453 2010 2510 3080 3640
2026-05-01 18:45 8.26 2980 5910 (1961) 29 (1963) 1110 44 52 94 107 453 2010 2510 3080 3640
2026-05-01 17:45 8.28 3000 5910 (1961) 29 (1963) 1110 44 52 94 107 453 2010 2510 3080 3640
2026-05-01 16:45 8.28 3000 5910 (1961) 29 (1963) 1110 44 52 94 107 453 2010 2510 3080 3640
2026-05-01 15:45 8.27 2990 5910 (1961) 29 (1963) 1110 44 52 94 107 453 2010 2510 3080 3640
2026-05-01 14:45 8.27 2990 5910 (1961) 29 (1963) 1110 44 52 94 107 453 2010 2510 3080 3640
2026-05-01 13:45 8.26 2980 5910 (1961) 29 (1963) 1110 44 52 94 107 453 2010 2510 3080 3640
2026-05-01 12:45 8.27 2990 5910 (1961) 29 (1963) 1110 44 52 94 107 453 2010 2510 3080 3640
2026-05-01 11:45 8.28 3000 5910 (1961) 29 (1963) 1110 44 52 94 107 453 2010 2510 3080 3640
2026-05-01 10:45 8.28 3000 5910 (1961) 29 (1963) 1110 44 52 94 107 453 2010 2510 3080 3640
2026-05-01 09:45 8.27 2990 5910 (1961) 29 (1963) 1110 44 52 94 107 453 2010 2510 3080 3640
2026-05-01 08:45 8.27 2990 5910 (1961) 29 (1963) 1110 44 52 94 107 453 2010 2510 3080 3640
2026-05-01 07:45 8.27 2990 5910 (1961) 29 (1963) 1110 44 52 94 107 453 2010 2510 3080 3640
2026-05-01 06:45 8.28 3000 5910 (1961) 29 (1963) 1110 44 52 94 107 453 2010 2510 3080 3640
2026-05-01 05:45 8.26 2980 5910 (1961) 29 (1963) 1110 44 52 94 107 453 2010 2510 3080 3640
2026-05-01 04:45 8.29 3010 5910 (1961) 29 (1963) 1110 44 52 94 107 453 2010 2510 3080 3640
2026-05-01 03:45 8.28 3000 5910 (1961) 29 (1963) 1110 44 52 94 107 453 2010 2510 3080 3640
2026-05-01 02:45 8.26 2980 5910 (1961) 29 (1963) 1110 44 52 94 107 453 2010 2510 3080 3640
2026-05-01 01:45 8.28 3000 5910 (1961) 29 (1963) 1110 44 52 94 107 453 2010 2510 3080 3640
2026-05-01 00:45 8.28 3000 5910 (1961) 29 (1963) 1110 44 52 94 107 453 2010 2510 3080 3640
2026-04-30 23:45 8.29 3010 5910 (1961) 29 (1963) 1110 44 52 94 107 453 2010 2510 3080 3640
2026-04-30 22:45 8.28 3000 3690 (2011) 30 (1963) 966 47 53 106 118 502 1730 2010 2780 3120
2026-04-30 21:45 8.28 3000 3690 (2011) 30 (1963) 966 47 53 106 118 502 1730 2010 2780 3120
2026-04-30 20:45 8.28 3000 3690 (2011) 30 (1963) 966 47 53 106 118 502 1730 2010 2780 3120
2026-04-30 19:45 8.27 2990 3690 (2011) 30 (1963) 966 47 53 106 118 502 1730 2010 2780 3120
2026-04-30 18:45 8.26 2980 3690 (2011) 30 (1963) 966 47 53 106 118 502 1730 2010 2780 3120
2026-04-30 17:45 8.28 3000 3690 (2011) 30 (1963) 966 47 53 106 118 502 1730 2010 2780 3120
2026-04-30 16:45 8.29 3010 3690 (2011) 30 (1963) 966 47 53 106 118 502 1730 2010 2780 3120
2026-04-30 15:45 8.29 3010 3690 (2011) 30 (1963) 966 47 53 106 118 502 1730 2010 2780 3120
2026-04-30 14:45 8.28 3000 3690 (2011) 30 (1963) 966 47 53 106 118 502 1730 2010 2780 3120
2026-04-30 13:45 8.27 2990 3690 (2011) 30 (1963) 966 47 53 106 118 502 1730 2010 2780 3120
2026-04-30 12:45 8.28 3000 3690 (2011) 30 (1963) 966 47 53 106 118 502 1730 2010 2780 3120
2026-04-30 11:45 8.27 2990 3690 (2011) 30 (1963) 966 47 53 106 118 502 1730 2010 2780 3120
2026-04-30 10:45 8.29 3010 3690 (2011) 30 (1963) 966 47 53 106 118 502 1730 2010 2780 3120
2026-04-30 09:45 8.28 3000 3690 (2011) 30 (1963) 966 47 53 106 118 502 1730 2010 2780 3120
2026-04-30 08:45 8.29 3010 3690 (2011) 30 (1963) 966 47 53 106 118 502 1730 2010 2780 3120
2026-04-30 07:45 8.28 3000 3690 (2011) 30 (1963) 966 47 53 106 118 502 1730 2010 2780 3120
2026-04-30 06:45 8.29 3010 3690 (2011) 30 (1963) 966 47 53 106 118 502 1730 2010 2780 3120
2026-04-30 05:45 8.29 3010 3690 (2011) 30 (1963) 966 47 53 106 118 502 1730 2010 2780 3120
2026-04-30 04:45 8.30 3020 3690 (2011) 30 (1963) 966 47 53 106 118 502 1730 2010 2780 3120
2026-04-30 03:45 8.29 3010 3690 (2011) 30 (1963) 966 47 53 106 118 502 1730 2010 2780 3120
2026-04-30 02:45 8.30 3020 3690 (2011) 30 (1963) 966 47 53 106 118 502 1730 2010 2780 3120
2026-04-30 01:45 8.29 3010 3690 (2011) 30 (1963) 966 47 53 106 118 502 1730 2010 2780 3120
2026-04-30 00:45 8.28 3000 3690 (2011) 30 (1963) 966 47 53 106 118 502 1730 2010 2780 3120
2026-04-29 23:45 8.29 3010 3690 (2011) 30 (1963) 966 47 53 106 118 502 1730 2010 2780 3120
2026-04-29 22:45 8.30 3020 3700 (2011) 31 (1963) 884 44 53 107 121 429 1600 1930 2430 2910
2026-04-29 21:45 8.29 3010 3700 (2011) 31 (1963) 884 44 53 107 121 429 1600 1930 2430 2910
2026-04-29 20:45 8.29 3010 3700 (2011) 31 (1963) 884 44 53 107 121 429 1600 1930 2430 2910
2026-04-29 19:45 8.29 3010 3700 (2011) 31 (1963) 884 44 53 107 121 429 1600 1930 2430 2910
2026-04-29 18:45 8.29 3010 3700 (2011) 31 (1963) 884 44 53 107 121 429 1600 1930 2430 2910
2026-04-29 17:45 8.29 3010 3700 (2011) 31 (1963) 884 44 53 107 121 429 1600 1930 2430 2910
2026-04-29 16:45 8.30 3020 3700 (2011) 31 (1963) 884 44 53 107 121 429 1600 1930 2430 2910
2026-04-29 15:45 8.31 3030 3700 (2011) 31 (1963) 884 44 53 107 121 429 1600 1930 2430 2910
2026-04-29 14:45 8.29 3010 3700 (2011) 31 (1963) 884 44 53 107 121 429 1600 1930 2430 2910
2026-04-29 13:45 8.30 3020 3700 (2011) 31 (1963) 884 44 53 107 121 429 1600 1930 2430 2910
2026-04-29 12:45 8.30 3020 3700 (2011) 31 (1963) 884 44 53 107 121 429 1600 1930 2430 2910
2026-04-29 11:45 8.29 3010 3700 (2011) 31 (1963) 884 44 53 107 121 429 1600 1930 2430 2910
2026-04-29 10:45 8.29 3010 3700 (2011) 31 (1963) 884 44 53 107 121 429 1600 1930 2430 2910
2026-04-29 09:45 8.29 3010 3700 (2011) 31 (1963) 884 44 53 107 121 429 1600 1930 2430 2910
2026-04-29 08:45 8.25 2970 3700 (2011) 31 (1963) 884 44 53 107 121 429 1600 1930 2430 2910
2026-04-29 07:45 8.03 2780 3700 (2011) 31 (1963) 884 44 53 107 121 429 1600 1930 2430 2910
2026-04-29 06:45 7.08 2040 3700 (2011) 31 (1963) 884 44 53 107 121 429 1600 1930 2430 2910
2026-04-29 05:45 7.09 2040 3700 (2011) 31 (1963) 884 44 53 107 121 429 1600 1930 2430 2910
2026-04-29 04:45 7.08 2040 3700 (2011) 31 (1963) 884 44 53 107 121 429 1600 1930 2430 2910
2026-04-29 03:45 7.08 2040 3700 (2011) 31 (1963) 884 44 53 107 121 429 1600 1930 2430 2910
2026-04-29 02:45 7.08 2040 3700 (2011) 31 (1963) 884 44 53 107 121 429 1600 1930 2430 2910
2026-04-29 01:45 7.07 2030 3700 (2011) 31 (1963) 884 44 53 107 121 429 1600 1930 2430 2910
2026-04-29 00:45 7.09 2040 3700 (2011) 31 (1963) 884 44 53 107 121 429 1600 1930 2430 2910
2026-04-28 23:45 7.08 2040 3700 (2011) 31 (1963) 884 44 53 107 121 429 1600 1930 2430 2910
2026-04-28 22:45 7.09 2040 3700 (2011) 30 (1963) 934 47 54 106 121 454 1560 1890 2770 3190
2026-04-28 21:45 7.07 2030 3700 (2011) 30 (1963) 934 47 54 106 121 454 1560 1890 2770 3190
2026-04-28 20:45 7.08 2040 3700 (2011) 30 (1963) 934 47 54 106 121 454 1560 1890 2770 3190
2026-04-28 19:45 7.08 2040 3700 (2011) 30 (1963) 934 47 54 106 121 454 1560 1890 2770 3190
2026-04-28 18:45 7.09 2040 3700 (2011) 30 (1963) 934 47 54 106 121 454 1560 1890 2770 3190
2026-04-28 17:45 7.09 2040 3700 (2011) 30 (1963) 934 47 54 106 121 454 1560 1890 2770 3190
2026-04-28 16:45 7.08 2040 3700 (2011) 30 (1963) 934 47 54 106 121 454 1560 1890 2770 3190
2026-04-28 15:45 7.10 2050 3700 (2011) 30 (1963) 934 47 54 106 121 454 1560 1890 2770 3190
2026-04-28 14:45 7.15 2090 3700 (2011) 30 (1963) 934 47 54 106 121 454 1560 1890 2770 3190
2026-04-28 13:45 7.40 2270 3700 (2011) 30 (1963) 934 47 54 106 121 454 1560 1890 2770 3190
2026-04-28 12:45 8.32 3030 3700 (2011) 30 (1963) 934 47 54 106 121 454 1560 1890 2770 3190
2026-04-28 11:45 8.31 3030 3700 (2011) 30 (1963) 934 47 54 106 121 454 1560 1890 2770 3190
2026-04-28 10:45 8.32 3030 3700 (2011) 30 (1963) 934 47 54 106 121 454 1560 1890 2770 3190
2026-04-28 09:45 8.31 3030 3700 (2011) 30 (1963) 934 47 54 106 121 454 1560 1890 2770 3190
2026-04-28 08:45 8.31 3030 3700 (2011) 30 (1963) 934 47 54 106 121 454 1560 1890 2770 3190
2026-04-28 07:45 8.33 3040 3700 (2011) 30 (1963) 934 47 54 106 121 454 1560 1890 2770 3190
2026-04-28 06:45 8.32 3030 3700 (2011) 30 (1963) 934 47 54 106 121 454 1560 1890 2770 3190
2026-04-28 05:45 8.31 3030 3700 (2011) 30 (1963) 934 47 54 106 121 454 1560 1890 2770 3190
2026-04-28 04:45 8.32 3030 3700 (2011) 30 (1963) 934 47 54 106 121 454 1560 1890 2770 3190
2026-04-28 03:45 8.32 3030 3700 (2011) 30 (1963) 934 47 54 106 121 454 1560 1890 2770 3190
2026-04-28 02:45 8.33 3040 3700 (2011) 30 (1963) 934 47 54 106 121 454 1560 1890 2770 3190
2026-04-28 01:45 8.32 3030 3700 (2011) 30 (1963) 934 47 54 106 121 454 1560 1890 2770 3190
2026-04-28 00:45 8.31 3030 3700 (2011) 30 (1963) 934 47 54 106 121 454 1560 1890 2770 3190
2026-04-27 23:45 8.33 3040 3700 (2011) 30 (1963) 934 47 54 106 121 454 1560 1890 2770 3190
2026-04-27 22:45 8.33 3040 3710 (2011) 32 (1963) 975 47 53 106 117 321 2030 2180 2810 3210
2026-04-27 21:45 8.31 3030 3710 (2011) 32 (1963) 975 47 53 106 117 321 2030 2180 2810 3210
2026-04-27 20:45 8.31 3030 3710 (2011) 32 (1963) 975 47 53 106 117 321 2030 2180 2810 3210
2026-04-27 19:45 8.29 3010 3710 (2011) 32 (1963) 975 47 53 106 117 321 2030 2180 2810 3210
2026-04-27 18:45 8.29 3010 3710 (2011) 32 (1963) 975 47 53 106 117 321 2030 2180 2810 3210
2026-04-27 17:45 8.28 3000 3710 (2011) 32 (1963) 975 47 53 106 117 321 2030 2180 2810 3210
2026-04-27 16:45 8.24 2960 3710 (2011) 32 (1963) 975 47 53 106 117 321 2030 2180 2810 3210
2026-04-27 15:45 7.92 2690 3710 (2011) 32 (1963) 975 47 53 106 117 321 2030 2180 2810 3210
2026-04-27 14:45 6.97 1960 3710 (2011) 32 (1963) 975 47 53 106 117 321 2030 2180 2810 3210
2026-04-27 13:45 6.95 1950 3710 (2011) 32 (1963) 975 47 53 106 117 321 2030 2180 2810 3210
2026-04-27 12:45 6.69 1770 3710 (2011) 32 (1963) 975 47 53 106 117 321 2030 2180 2810 3210
2026-04-27 11:45 5.43 1050 3710 (2011) 32 (1963) 975 47 53 106 117 321 2030 2180 2810 3210
2026-04-27 10:45 5.44 1050 3710 (2011) 32 (1963) 975 47 53 106 117 321 2030 2180 2810 3210
2026-04-27 09:45 5.45 1060 3710 (2011) 32 (1963) 975 47 53 106 117 321 2030 2180 2810 3210
2026-04-27 08:45 5.44 1050 3710 (2011) 32 (1963) 975 47 53 106 117 321 2030 2180 2810 3210
2026-04-27 07:45 5.44 1050 3710 (2011) 32 (1963) 975 47 53 106 117 321 2030 2180 2810 3210
2026-04-27 06:45 5.44 1050 3710 (2011) 32 (1963) 975 47 53 106 117 321 2030 2180 2810 3210
2026-04-27 05:45 5.43 1050 3710 (2011) 32 (1963) 975 47 53 106 117 321 2030 2180 2810 3210
2026-04-27 04:45 5.43 1050 3710 (2011) 32 (1963) 975 47 53 106 117 321 2030 2180 2810 3210
2026-04-27 03:45 5.44 1050 3710 (2011) 32 (1963) 975 47 53 106 117 321 2030 2180 2810 3210
2026-04-27 02:45 5.44 1050 3710 (2011) 32 (1963) 975 47 53 106 117 321 2030 2180 2810 3210
2026-04-27 01:45 5.45 1060 3710 (2011) 32 (1963) 975 47 53 106 117 321 2030 2180 2810 3210
2026-04-27 00:45 5.46 1060 3710 (2011) 32 (1963) 975 47 53 106 117 321 2030 2180 2810 3210
2026-04-26 23:45 5.49 1080 3710 (2011) 32 (1963) 975 47 53 106 117 321 2030 2180 2810 3210
2026-04-26 22:45 5.53 1100 3490 (2025) 29 (1963) 896 47 53 99 110 308 1580 1990 2800 3170
2026-04-26 21:45 5.79 1230 3490 (2025) 29 (1963) 896 47 53 99 110 308 1580 1990 2800 3170
2026-04-26 20:45 7.08 2040 3490 (2025) 29 (1963) 896 47 53 99 110 308 1580 1990 2800 3170
2026-04-26 19:45 7.17 2100 3490 (2025) 29 (1963) 896 47 53 99 110 308 1580 1990 2800 3170
2026-04-26 18:45 7.60 2430 3490 (2025) 29 (1963) 896 47 53 99 110 308 1580 1990 2800 3170
2026-04-26 17:45 8.27 2990 3490 (2025) 29 (1963) 896 47 53 99 110 308 1580 1990 2800 3170
2026-04-26 16:45 8.27 2990 3490 (2025) 29 (1963) 896 47 53 99 110 308 1580 1990 2800 3170
2026-04-26 15:45 8.28 3000 3490 (2025) 29 (1963) 896 47 53 99 110 308 1580 1990 2800 3170
2026-04-26 14:45 8.30 3020 3490 (2025) 29 (1963) 896 47 53 99 110 308 1580 1990 2800 3170
2026-04-26 13:45 8.28 3000 3490 (2025) 29 (1963) 896 47 53 99 110 308 1580 1990 2800 3170
2026-04-26 12:45 8.28 3000 3490 (2025) 29 (1963) 896 47 53 99 110 308 1580 1990 2800 3170
2026-04-26 11:45 8.29 3010 3490 (2025) 29 (1963) 896 47 53 99 110 308 1580 1990 2800 3170
2026-04-26 10:45 8.28 3000 3490 (2025) 29 (1963) 896 47 53 99 110 308 1580 1990 2800 3170
2026-04-26 09:45 8.29 3010 3490 (2025) 29 (1963) 896 47 53 99 110 308 1580 1990 2800 3170
2026-04-26 08:45 8.29 3010 3490 (2025) 29 (1963) 896 47 53 99 110 308 1580 1990 2800 3170
2026-04-26 07:45 8.29 3010 3490 (2025) 29 (1963) 896 47 53 99 110 308 1580 1990 2800 3170
2026-04-26 06:45 8.29 3010 3490 (2025) 29 (1963) 896 47 53 99 110 308 1580 1990 2800 3170
2026-04-26 05:45 8.29 3010 3490 (2025) 29 (1963) 896 47 53 99 110 308 1580 1990 2800 3170
2026-04-26 04:45 8.28 3000 3490 (2025) 29 (1963) 896 47 53 99 110 308 1580 1990 2800 3170
2026-04-26 03:45 8.29 3010 3490 (2025) 29 (1963) 896 47 53 99 110 308 1580 1990 2800 3170
2026-04-26 02:45 8.28 3000 3490 (2025) 29 (1963) 896 47 53 99 110 308 1580 1990 2800 3170
2026-04-26 01:45 8.29 3010 3490 (2025) 29 (1963) 896 47 53 99 110 308 1580 1990 2800 3170
2026-04-26 00:45 8.28 3000 3490 (2025) 29 (1963) 896 47 53 99 110 308 1580 1990 2800 3170
2026-04-25 23:45 8.29 3010 3490 (2025) 29 (1963) 896 47 53 99 110 308 1580 1990 2800 3170
2026-04-25 22:45 8.28 3000 3500 (2025) 29 (1963) 871 42 53 95 112 309 1570 2020 2600 3030
2026-04-25 21:45 8.28 3000 3500 (2025) 29 (1963) 871 42 53 95 112 309 1570 2020 2600 3030
2026-04-25 20:45 8.29 3010 3500 (2025) 29 (1963) 871 42 53 95 112 309 1570 2020 2600 3030
2026-04-25 19:45 8.28 3000 3500 (2025) 29 (1963) 871 42 53 95 112 309 1570 2020 2600 3030
2026-04-25 18:45 8.28 3000 3500 (2025) 29 (1963) 871 42 53 95 112 309 1570 2020 2600 3030
2026-04-25 17:45 8.30 3020 3500 (2025) 29 (1963) 871 42 53 95 112 309 1570 2020 2600 3030
2026-04-25 16:45 8.29 3010 3500 (2025) 29 (1963) 871 42 53 95 112 309 1570 2020 2600 3030
2026-04-25 15:45 8.30 3020 3500 (2025) 29 (1963) 871 42 53 95 112 309 1570 2020 2600 3030
2026-04-25 14:45 8.29 3010 3500 (2025) 29 (1963) 871 42 53 95 112 309 1570 2020 2600 3030
2026-04-25 13:45 8.29 3010 3500 (2025) 29 (1963) 871 42 53 95 112 309 1570 2020 2600 3030
2026-04-25 12:45 8.29 3010 3500 (2025) 29 (1963) 871 42 53 95 112 309 1570 2020 2600 3030
2026-04-25 11:45 8.29 3010 3500 (2025) 29 (1963) 871 42 53 95 112 309 1570 2020 2600 3030
2026-04-25 10:45 8.30 3020 3500 (2025) 29 (1963) 871 42 53 95 112 309 1570 2020 2600 3030
2026-04-25 09:45 8.28 3000 3500 (2025) 29 (1963) 871 42 53 95 112 309 1570 2020 2600 3030
2026-04-25 08:45 8.30 3020 3500 (2025) 29 (1963) 871 42 53 95 112 309 1570 2020 2600 3030
2026-04-25 07:45 8.29 3010 3500 (2025) 29 (1963) 871 42 53 95 112 309 1570 2020 2600 3030
2026-04-25 06:45 8.30 3020 3500 (2025) 29 (1963) 871 42 53 95 112 309 1570 2020 2600 3030
2026-04-25 05:45 8.29 3010 3500 (2025) 29 (1963) 871 42 53 95 112 309 1570 2020 2600 3030
2026-04-25 04:45 8.30 3020 3500 (2025) 29 (1963) 871 42 53 95 112 309 1570 2020 2600 3030
2026-04-25 03:45 8.30 3020 3500 (2025) 29 (1963) 871 42 53 95 112 309 1570 2020 2600 3030
2026-04-25 02:45 8.30 3020 3500 (2025) 29 (1963) 871 42 53 95 112 309 1570 2020 2600 3030
2026-04-25 01:45 8.29 3010 3500 (2025) 29 (1963) 871 42 53 95 112 309 1570 2020 2600 3030
2026-04-25 00:45 8.29 3010 3500 (2025) 29 (1963) 871 42 53 95 112 309 1570 2020 2600 3030
2026-04-24 23:45 8.30 3020 3500 (2025) 29 (1963) 871 42 53 95 112 309 1570 2020 2600 3030
2026-04-24 22:45 8.29 3010 3520 (2025) 29 (1963) 971 47 54 93 127 485 1650 2040 2750 3030
2026-04-24 21:45 8.31 3030 3520 (2025) 29 (1963) 971 47 54 93 127 485 1650 2040 2750 3030
2026-04-24 20:45 8.30 3020 3520 (2025) 29 (1963) 971 47 54 93 127 485 1650 2040 2750 3030
2026-04-24 19:45 8.31 3030 3520 (2025) 29 (1963) 971 47 54 93 127 485 1650 2040 2750 3030
2026-04-24 18:45 8.30 3020 3520 (2025) 29 (1963) 971 47 54 93 127 485 1650 2040 2750 3030
2026-04-24 17:45 8.30 3020 3520 (2025) 29 (1963) 971 47 54 93 127 485 1650 2040 2750 3030
2026-04-24 16:45 8.30 3020 3520 (2025) 29 (1963) 971 47 54 93 127 485 1650 2040 2750 3030
2026-04-24 15:45 8.30 3020 3520 (2025) 29 (1963) 971 47 54 93 127 485 1650 2040 2750 3030
2026-04-24 14:45 3030 3520 (2025) 29 (1963) 971 47 54 93 127 485 1650 2040 2750 3030
2026-04-24 13:45 8.29 3010 3520 (2025) 29 (1963) 971 47 54 93 127 485 1650 2040 2750 3030
2026-04-24 12:45 8.26 2980 3520 (2025) 29 (1963) 971 47 54 93 127 485 1650 2040 2750 3030
2026-04-24 11:45 8.04 2790 3520 (2025) 29 (1963) 971 47 54 93 127 485 1650 2040 2750 3030
2026-04-24 10:45 7.66 2480 3520 (2025) 29 (1963) 971 47 54 93 127 485 1650 2040 2750 3030
2026-04-24 09:45 7.64 2460 3520 (2025) 29 (1963) 971 47 54 93 127 485 1650 2040 2750 3030
2026-04-24 08:45 7.47 2330 3520 (2025) 29 (1963) 971 47 54 93 127 485 1650 2040 2750 3030
2026-04-24 07:45 6.99 1970 3520 (2025) 29 (1963) 971 47 54 93 127 485 1650 2040 2750 3030
2026-04-24 06:45 6.99 1970 3520 (2025) 29 (1963) 971 47 54 93 127 485 1650 2040 2750 3030
2026-04-24 05:45 7.02 1990 3520 (2025) 29 (1963) 971 47 54 93 127 485 1650 2040 2750 3030
2026-04-24 04:45 7.00 1980 3520 (2025) 29 (1963) 971 47 54 93 127 485 1650 2040 2750 3030
2026-04-24 03:45 7.00 1980 3520 (2025) 29 (1963) 971 47 54 93 127 485 1650 2040 2750 3030
2026-04-24 02:45 7.01 1990 3520 (2025) 29 (1963) 971 47 54 93 127 485 1650 2040 2750 3030
2026-04-24 01:45 7.00 1980 3520 (2025) 29 (1963) 971 47 54 93 127 485 1650 2040 2750 3030
2026-04-24 00:45 6.98 1970 3520 (2025) 29 (1963) 971 47 54 93 127 485 1650 2040 2750 3030
2026-04-23 23:45 6.98 1970 3520 (2025) 29 (1963) 971 47 54 93 127 485 1650 2040 2750 3030
2026-04-23 22:45 6.98 1970 3360 (2025) 29 (1963) 1000 47 54 92 118 566 1720 1990 2850 3240
2026-04-23 21:45 6.98 1970 3360 (2025) 29 (1963) 1000 47 54 92 118 566 1720 1990 2850 3240
2026-04-23 20:45 6.99 1970 3360 (2025) 29 (1963) 1000 47 54 92 118 566 1720 1990 2850 3240
2026-04-23 19:45 6.98 1970 3360 (2025) 29 (1963) 1000 47 54 92 118 566 1720 1990 2850 3240
2026-04-23 18:45 6.99 1970 3360 (2025) 29 (1963) 1000 47 54 92 118 566 1720 1990 2850 3240
2026-04-23 17:45 6.99 1970 3360 (2025) 29 (1963) 1000 47 54 92 118 566 1720 1990 2850 3240
2026-04-23 16:45 7.03 2000 3360 (2025) 29 (1963) 1000 47 54 92 118 566 1720 1990 2850 3240
2026-04-23 15:45 7.34 2230 3360 (2025) 29 (1963) 1000 47 54 92 118 566 1720 1990 2850 3240
2026-04-23 14:45 7.77 2560 3360 (2025) 29 (1963) 1000 47 54 92 118 566 1720 1990 2850 3240
2026-04-23 13:45 8.31 3030 3360 (2025) 29 (1963) 1000 47 54 92 118 566 1720 1990 2850 3240
2026-04-23 12:45 8.32 3030 3360 (2025) 29 (1963) 1000 47 54 92 118 566 1720 1990 2850 3240
2026-04-23 11:45 8.32 3030 3360 (2025) 29 (1963) 1000 47 54 92 118 566 1720 1990 2850 3240
2026-04-23 10:45 8.32 3030 3360 (2025) 29 (1963) 1000 47 54 92 118 566 1720 1990 2850 3240
2026-04-23 09:45 8.36 3070 3360 (2025) 29 (1963) 1000 47 54 92 118 566 1720 1990 2850 3240
2026-04-23 08:45 8.68 3370 3360 (2025) 29 (1963) 1000 47 54 92 118 566 1720 1990 2850 3240
2026-04-23 07:45 8.87 3550 3360 (2025) 29 (1963) 1000 47 54 92 118 566 1720 1990 2850 3240
2026-04-23 06:45 8.88 3560 3360 (2025) 29 (1963) 1000 47 54 92 118 566 1720 1990 2850 3240
2026-04-23 05:45 8.89 3570 3360 (2025) 29 (1963) 1000 47 54 92 118 566 1720 1990 2850 3240
2026-04-23 04:45 8.88 3560 3360 (2025) 29 (1963) 1000 47 54 92 118 566 1720 1990 2850 3240
2026-04-23 03:45 8.90 3580 3360 (2025) 29 (1963) 1000 47 54 92 118 566 1720 1990 2850 3240
2026-04-23 02:45 8.89 3570 3360 (2025) 29 (1963) 1000 47 54 92 118 566 1720 1990 2850 3240
2026-04-23 01:45 8.88 3560 3360 (2025) 29 (1963) 1000 47 54 92 118 566 1720 1990 2850 3240
2026-04-23 00:45 8.88 3560 3360 (2025) 29 (1963) 1000 47 54 92 118 566 1720 1990 2850 3240
2026-04-22 23:45 8.89 3570 3360 (2025) 29 (1963) 1000 47 54 92 118 566 1720 1990 2850 3240
2026-04-22 22:45 8.88 3560 3630 (2011) 28 (1963) 946 48 54 101 121 465 1640 2090 2610 3040
2026-04-22 21:45 8.89 3570 3630 (2011) 28 (1963) 946 48 54 101 121 465 1640 2090 2610 3040
2026-04-22 20:45 8.90 3580 3630 (2011) 28 (1963) 946 48 54 101 121 465 1640 2090 2610 3040
2026-04-22 19:45 8.88 3560 3630 (2011) 28 (1963) 946 48 54 101 121 465 1640 2090 2610 3040
2026-04-22 18:45 8.89 3570 3630 (2011) 28 (1963) 946 48 54 101 121 465 1640 2090 2610 3040
2026-04-22 17:45 8.88 3560 3630 (2011) 28 (1963) 946 48 54 101 121 465 1640 2090 2610 3040
2026-04-22 16:45 8.85 3530 3630 (2011) 28 (1963) 946 48 54 101 121 465 1640 2090 2610 3040
2026-04-22 15:45 8.62 3310 3630 (2011) 28 (1963) 946 48 54 101 121 465 1640 2090 2610 3040
2026-04-22 14:45 8.33 3040 3630 (2011) 28 (1963) 946 48 54 101 121 465 1640 2090 2610 3040
2026-04-22 13:45 8.34 3050 3630 (2011) 28 (1963) 946 48 54 101 121 465 1640 2090 2610 3040
2026-04-22 12:45 8.35 3060 3630 (2011) 28 (1963) 946 48 54 101 121 465 1640 2090 2610 3040
2026-04-22 11:45 8.34 3050 3630 (2011) 28 (1963) 946 48 54 101 121 465 1640 2090 2610 3040
2026-04-22 10:45 8.35 3060 3630 (2011) 28 (1963) 946 48 54 101 121 465 1640 2090 2610 3040
2026-04-22 09:45 8.41 3120 3630 (2011) 28 (1963) 946 48 54 101 121 465 1640 2090 2610 3040
2026-04-22 08:45 8.75 3430 3630 (2011) 28 (1963) 946 48 54 101 121 465 1640 2090 2610 3040
2026-04-22 07:45 8.88 3560 3630 (2011) 28 (1963) 946 48 54 101 121 465 1640 2090 2610 3040
2026-04-22 06:45 8.88 3560 3630 (2011) 28 (1963) 946 48 54 101 121 465 1640 2090 2610 3040
2026-04-22 05:45 8.89 3580 3630 (2011) 28 (1963) 946 48 54 101 121 465 1640 2090 2610 3040
2026-04-22 04:45 8.90 3590 3630 (2011) 28 (1963) 946 48 54 101 121 465 1640 2090 2610 3040
2026-04-22 03:45 8.89 3580 3630 (2011) 28 (1963) 946 48 54 101 121 465 1640 2090 2610 3040
2026-04-22 02:45 8.89 3580 3630 (2011) 28 (1963) 946 48 54 101 121 465 1640 2090 2610 3040
2026-04-22 01:45 8.89 3580 3630 (2011) 28 (1963) 946 48 54 101 121 465 1640 2090 2610 3040
2026-04-22 00:45 8.89 3580 3630 (2011) 28 (1963) 946 48 54 101 121 465 1640 2090 2610 3040
2026-04-21 23:45 8.91 3600 3630 (2011) 28 (1963) 946 48 54 101 121 465 1640 2090 2610 3040
2026-04-21 22:45 8.90 3590 3640 (2011) 27 (1963) 876 46 53 90 113 337 1290 1900 2610 3100
2026-04-21 21:45 8.90 3590 3640 (2011) 27 (1963) 876 46 53 90 113 337 1290 1900 2610 3100
2026-04-21 20:45 8.90 3590 3640 (2011) 27 (1963) 876 46 53 90 113 337 1290 1900 2610 3100
2026-04-21 19:45 8.88 3570 3640 (2011) 27 (1963) 876 46 53 90 113 337 1290 1900 2610 3100
2026-04-21 18:45 8.90 3590 3640 (2011) 27 (1963) 876 46 53 90 113 337 1290 1900 2610 3100
2026-04-21 17:45 8.90 3590 3640 (2011) 27 (1963) 876 46 53 90 113 337 1290 1900 2610 3100
2026-04-21 16:45 8.90 3590 3640 (2011) 27 (1963) 876 46 53 90 113 337 1290 1900 2610 3100
2026-04-21 15:45 8.90 3590 3640 (2011) 27 (1963) 876 46 53 90 113 337 1290 1900 2610 3100
2026-04-21 14:45 8.92 3610 3640 (2011) 27 (1963) 876 46 53 90 113 337 1290 1900 2610 3100
2026-04-21 13:45 8.91 3600 3640 (2011) 27 (1963) 876 46 53 90 113 337 1290 1900 2610 3100
2026-04-21 12:45 8.91 3600 3640 (2011) 27 (1963) 876 46 53 90 113 337 1290 1900 2610 3100
2026-04-21 11:45 8.90 3590 3640 (2011) 27 (1963) 876 46 53 90 113 337 1290 1900 2610 3100
2026-04-21 10:45 8.83 3530 3640 (2011) 27 (1963) 876 46 53 90 113 337 1290 1900 2610 3100
2026-04-21 09:45 8.37 3100 3640 (2011) 27 (1963) 876 46 53 90 113 337 1290 1900 2610 3100
2026-04-21 08:45 8.37 3100 3640 (2011) 27 (1963) 876 46 53 90 113 337 1290 1900 2610 3100
2026-04-21 07:45 8.38 3110 3640 (2011) 27 (1963) 876 46 53 90 113 337 1290 1900 2610 3100
2026-04-21 06:45 8.38 3110 3640 (2011) 27 (1963) 876 46 53 90 113 337 1290 1900 2610 3100
2026-04-21 05:45 8.39 3110 3640 (2011) 27 (1963) 876 46 53 90 113 337 1290 1900 2610 3100
2026-04-21 04:45 8.40 3120 3640 (2011) 27 (1963) 876 46 53 90 113 337 1290 1900 2610 3100
2026-04-21 03:45 8.38 3110 3640 (2011) 27 (1963) 876 46 53 90 113 337 1290 1900 2610 3100
2026-04-21 02:45 8.39 3110 3640 (2011) 27 (1963) 876 46 53 90 113 337 1290 1900 2610 3100
2026-04-21 01:45 8.38 3110 3640 (2011) 27 (1963) 876 46 53 90 113 337 1290 1900 2610 3100
2026-04-21 00:45 8.39 3110 3640 (2011) 27 (1963) 876 46 53 90 113 337 1290 1900 2610 3100
2026-04-20 23:45 8.39 3110 3640 (2011) 27 (1963) 876 46 53 90 113 337 1290 1900 2610 3100
2026-04-20 22:45 8.39 3110 3650 (2011) 27 (1963) 893 46 53 102 116 324 1220 1780 2860 3290
2026-04-20 21:45 8.39 3110 3650 (2011) 27 (1963) 893 46 53 102 116 324 1220 1780 2860 3290
2026-04-20 20:45 8.38 3110 3650 (2011) 27 (1963) 893 46 53 102 116 324 1220 1780 2860 3290
2026-04-20 19:45 8.39 3110 3650 (2011) 27 (1963) 893 46 53 102 116 324 1220 1780 2860 3290
2026-04-20 18:45 8.39 3110 3650 (2011) 27 (1963) 893 46 53 102 116 324 1220 1780 2860 3290
2026-04-20 17:45 8.38 3110 3650 (2011) 27 (1963) 893 46 53 102 116 324 1220 1780 2860 3290
2026-04-20 16:45 8.37 3100 3650 (2011) 27 (1963) 893 46 53 102 116 324 1220 1780 2860 3290
2026-04-20 15:45 8.31 3040 3650 (2011) 27 (1963) 893 46 53 102 116 324 1220 1780 2860 3290
2026-04-20 14:45 7.78 2590 3650 (2011) 27 (1963) 893 46 53 102 116 324 1220 1780 2860 3290
2026-04-20 13:45 7.77 2580 3650 (2011) 27 (1963) 893 46 53 102 116 324 1220 1780 2860 3290
2026-04-20 12:45 7.77 2580 3650 (2011) 27 (1963) 893 46 53 102 116 324 1220 1780 2860 3290
2026-04-20 11:45 7.75 2570 3650 (2011) 27 (1963) 893 46 53 102 116 324 1220 1780 2860 3290
2026-04-20 10:45 7.69 2520 3650 (2011) 27 (1963) 893 46 53 102 116 324 1220 1780 2860 3290
2026-04-20 09:45 7.02 2020 3650 (2011) 27 (1963) 893 46 53 102 116 324 1220 1780 2860 3290
2026-04-20 08:45 7.03 2020 3650 (2011) 27 (1963) 893 46 53 102 116 324 1220 1780 2860 3290
2026-04-20 07:45 7.02 2020 3650 (2011) 27 (1963) 893 46 53 102 116 324 1220 1780 2860 3290
2026-04-20 06:45 7.04 2030 3650 (2011) 27 (1963) 893 46 53 102 116 324 1220 1780 2860 3290
2026-04-20 05:45 7.02 2020 3650 (2011) 27 (1963) 893 46 53 102 116 324 1220 1780 2860 3290
2026-04-20 04:45 7.02 2020 3650 (2011) 27 (1963) 893 46 53 102 116 324 1220 1780 2860 3290
2026-04-20 03:45 7.02 2020 3650 (2011) 27 (1963) 893 46 53 102 116 324 1220 1780 2860 3290
2026-04-20 02:45 7.02 2020 3650 (2011) 27 (1963) 893 46 53 102 116 324 1220 1780 2860 3290
2026-04-20 01:45 7.03 2020 3650 (2011) 27 (1963) 893 46 53 102 116 324 1220 1780 2860 3290
2026-04-20 00:45 7.02 2020 3650 (2011) 27 (1963) 893 46 53 102 116 324 1220 1780 2860 3290
2026-04-19 23:45 7.02 2020 3650 (2011) 27 (1963) 893 46 53 102 116 324 1220 1780 2860 3290
2026-04-19 22:45 7.02 2020 3650 (2011) 28 (1963) 936 47 52 100 118 405 1410 2220 2870 3300
2026-04-19 21:45 7.03 2020 3650 (2011) 28 (1963) 936 47 52 100 118 405 1410 2220 2870 3300
2026-04-19 20:45 7.02 2020 3650 (2011) 28 (1963) 936 47 52 100 118 405 1410 2220 2870 3300
2026-04-19 19:45 7.02 2020 3650 (2011) 28 (1963) 936 47 52 100 118 405 1410 2220 2870 3300
2026-04-19 18:45 7.02 2020 3650 (2011) 28 (1963) 936 47 52 100 118 405 1410 2220 2870 3300
2026-04-19 17:45 7.02 2020 3650 (2011) 28 (1963) 936 47 52 100 118 405 1410 2220 2870 3300
2026-04-19 16:45 7.02 2020 3650 (2011) 28 (1963) 936 47 52 100 118 405 1410 2220 2870 3300
2026-04-19 15:45 7.00 2000 3650 (2011) 28 (1963) 936 47 52 100 118 405 1410 2220 2870 3300
2026-04-19 14:45 6.92 1950 3650 (2011) 28 (1963) 936 47 52 100 118 405 1410 2220 2870 3300
2026-04-19 13:45 6.24 1510 3650 (2011) 28 (1963) 936 47 52 100 118 405 1410 2220 2870 3300
2026-04-19 12:45 6.24 1510 3650 (2011) 28 (1963) 936 47 52 100 118 405 1410 2220 2870 3300
2026-04-19 11:45 6.24 1510 3650 (2011) 28 (1963) 936 47 52 100 118 405 1410 2220 2870 3300
2026-04-19 10:45 6.25 1520 3650 (2011) 28 (1963) 936 47 52 100 118 405 1410 2220 2870 3300
2026-04-19 09:45 6.24 1510 3650 (2011) 28 (1963) 936 47 52 100 118 405 1410 2220 2870 3300
2026-04-19 08:45 6.23 1500 3650 (2011) 28 (1963) 936 47 52 100 118 405 1410 2220 2870 3300
2026-04-19 07:45 6.23 1500 3650 (2011) 28 (1963) 936 47 52 100 118 405 1410 2220 2870 3300
2026-04-19 06:45 6.24 1510 3650 (2011) 28 (1963) 936 47 52 100 118 405 1410 2220 2870 3300
2026-04-19 05:45 6.24 1510 3650 (2011) 28 (1963) 936 47 52 100 118 405 1410 2220 2870 3300
2026-04-19 04:45 6.24 1510 3650 (2011) 28 (1963) 936 47 52 100 118 405 1410 2220 2870 3300
2026-04-19 03:45 6.23 1500 3650 (2011) 28 (1963) 936 47 52 100 118 405 1410 2220 2870 3300
2026-04-19 02:45 6.23 1500 3650 (2011) 28 (1963) 936 47 52 100 118 405 1410 2220 2870 3300
2026-04-19 01:45 6.24 1510 3650 (2011) 28 (1963) 936 47 52 100 118 405 1410 2220 2870 3300
2026-04-19 00:45 6.23 1500 3650 (2011) 28 (1963) 936 47 52 100 118 405 1410 2220 2870 3300
2026-04-18 23:45 6.23 1500 3650 (2011) 28 (1963) 936 47 52 100 118 405 1410 2220 2870 3300
2026-04-18 22:45 6.24 1510 3660 (2011) 26 (1963) 992 47 53 107 128 425 1480 2370 2950 3460
2026-04-18 21:45 6.23 1500 3660 (2011) 26 (1963) 992 47 53 107 128 425 1480 2370 2950 3460
2026-04-18 20:45 6.23 1500 3660 (2011) 26 (1963) 992 47 53 107 128 425 1480 2370 2950 3460
2026-04-18 19:45 6.23 1500 3660 (2011) 26 (1963) 992 47 53 107 128 425 1480 2370 2950 3460
2026-04-18 18:45 6.23 1500 3660 (2011) 26 (1963) 992 47 53 107 128 425 1480 2370 2950 3460
2026-04-18 17:45 6.23 1500 3660 (2011) 26 (1963) 992 47 53 107 128 425 1480 2370 2950 3460
2026-04-18 16:45 6.23 1500 3660 (2011) 26 (1963) 992 47 53 107 128 425 1480 2370 2950 3460
2026-04-18 15:45 6.19 1480 3660 (2011) 26 (1963) 992 47 53 107 128 425 1480 2370 2950 3460
2026-04-18 14:45 5.94 1340 3660 (2011) 26 (1963) 992 47 53 107 128 425 1480 2370 2950 3460
2026-04-18 13:45 5.39 1050 3660 (2011) 26 (1963) 992 47 53 107 128 425 1480 2370 2950 3460
2026-04-18 12:45 5.11 919 3660 (2011) 26 (1963) 992 47 53 107 128 425 1480 2370 2950 3460
2026-04-18 11:45 4.10 526 3660 (2011) 26 (1963) 992 47 53 107 128 425 1480 2370 2950 3460
2026-04-18 10:45 4.11 530 3660 (2011) 26 (1963) 992 47 53 107 128 425 1480 2370 2950 3460
2026-04-18 09:45 4.11 530 3660 (2011) 26 (1963) 992 47 53 107 128 425 1480 2370 2950 3460
2026-04-18 08:45 4.11 530 3660 (2011) 26 (1963) 992 47 53 107 128 425 1480 2370 2950 3460
2026-04-18 07:45 4.13 536 3660 (2011) 26 (1963) 992 47 53 107 128 425 1480 2370 2950 3460
2026-04-18 06:45 4.14 540 3660 (2011) 26 (1963) 992 47 53 107 128 425 1480 2370 2950 3460
2026-04-18 05:45 4.16 546 3660 (2011) 26 (1963) 992 47 53 107 128 425 1480 2370 2950 3460
2026-04-18 04:45 4.21 563 3660 (2011) 26 (1963) 992 47 53 107 128 425 1480 2370 2950 3460
2026-04-18 03:45 4.28 587 3660 (2011) 26 (1963) 992 47 53 107 128 425 1480 2370 2950 3460
2026-04-18 02:45 4.38 623 3660 (2011) 26 (1963) 992 47 53 107 128 425 1480 2370 2950 3460
2026-04-18 01:45 4.41 634 3660 (2011) 26 (1963) 992 47 53 107 128 425 1480 2370 2950 3460
2026-04-18 00:45 4.37 619 3660 (2011) 26 (1963) 992 47 53 107 128 425 1480 2370 2950 3460
2026-04-17 23:45 4.37 619 3660 (2011) 26 (1963) 992 47 53 107 128 425 1480 2370 2950 3460
2026-04-17 22:45 4.23 570 3680 (2011) 26 (1963) 1070 47 53 102 128 642 1860 2490 2950 3450
2026-04-17 21:45 4.09 523 3680 (2011) 26 (1963) 1070 47 53 102 128 642 1860 2490 2950 3450
2026-04-17 20:45 4.06 513 3680 (2011) 26 (1963) 1070 47 53 102 128 642 1860 2490 2950 3450
2026-04-17 19:45 4.04 507 3680 (2011) 26 (1963) 1070 47 53 102 128 642 1860 2490 2950 3450
2026-04-17 18:45 4.05 510 3680 (2011) 26 (1963) 1070 47 53 102 128 642 1860 2490 2950 3450
2026-04-17 17:45 4.10 526 3680 (2011) 26 (1963) 1070 47 53 102 128 642 1860 2490 2950 3450
2026-04-17 16:45 4.27 584 3680 (2011) 26 (1963) 1070 47 53 102 128 642 1860 2490 2950 3450
2026-04-17 15:45 4.90 827 3680 (2011) 26 (1963) 1070 47 53 102 128 642 1860 2490 2950 3450
2026-04-17 14:45 5.50 1100 3680 (2011) 26 (1963) 1070 47 53 102 128 642 1860 2490 2950 3450
2026-04-17 13:45 5.99 1370 3680 (2011) 26 (1963) 1070 47 53 102 128 642 1860 2490 2950 3450
2026-04-17 12:45 6.23 1500 3680 (2011) 26 (1963) 1070 47 53 102 128 642 1860 2490 2950 3450
2026-04-17 11:45 6.62 1750 3680 (2011) 26 (1963) 1070 47 53 102 128 642 1860 2490 2950 3450
2026-04-17 10:45 6.97 1980 3680 (2011) 26 (1963) 1070 47 53 102 128 642 1860 2490 2950 3450
2026-04-17 09:45 6.98 1990 3680 (2011) 26 (1963) 1070 47 53 102 128 642 1860 2490 2950 3450
2026-04-17 08:45 6.97 1980 3680 (2011) 26 (1963) 1070 47 53 102 128 642 1860 2490 2950 3450
2026-04-17 07:45 6.96 1980 3680 (2011) 26 (1963) 1070 47 53 102 128 642 1860 2490 2950 3450
2026-04-17 06:45 6.97 1980 3680 (2011) 26 (1963) 1070 47 53 102 128 642 1860 2490 2950 3450
2026-04-17 05:45 6.97 1980 3680 (2011) 26 (1963) 1070 47 53 102 128 642 1860 2490 2950 3450
2026-04-17 04:45 6.96 1980 3680 (2011) 26 (1963) 1070 47 53 102 128 642 1860 2490 2950 3450
2026-04-17 03:45 6.97 1980 3680 (2011) 26 (1963) 1070 47 53 102 128 642 1860 2490 2950 3450
2026-04-17 02:45 6.96 1980 3680 (2011) 26 (1963) 1070 47 53 102 128 642 1860 2490 2950 3450
2026-04-17 01:45 6.97 1980 3680 (2011) 26 (1963) 1070 47 53 102 128 642 1860 2490 2950 3450
2026-04-17 00:45 6.96 1980 3680 (2011) 26 (1963) 1070 47 53 102 128 642 1860 2490 2950 3450
2026-04-16 23:45 6.97 1980 3680 (2011) 26 (1963) 1070 47 53 102 128 642 1860 2490 2950 3450
2026-04-16 22:45 6.96 1980 3690 (2011) 26 (1963) 1040 47 53 103 174 511 1580 2410 2960 3430
2026-04-16 21:45 6.96 1980 3690 (2011) 26 (1963) 1040 47 53 103 174 511 1580 2410 2960 3430
2026-04-16 20:45 6.96 1980 3690 (2011) 26 (1963) 1040 47 53 103 174 511 1580 2410 2960 3430
2026-04-16 19:45 6.97 1980 3690 (2011) 26 (1963) 1040 47 53 103 174 511 1580 2410 2960 3430
2026-04-16 18:45 6.97 1980 3690 (2011) 26 (1963) 1040 47 53 103 174 511 1580 2410 2960 3430
2026-04-16 17:45 6.97 1980 3690 (2011) 26 (1963) 1040 47 53 103 174 511 1580 2410 2960 3430
2026-04-16 16:45 6.93 1950 3690 (2011) 26 (1963) 1040 47 53 103 174 511 1580 2410 2960 3430
2026-04-16 15:45 6.63 1750 3690 (2011) 26 (1963) 1040 47 53 103 174 511 1580 2410 2960 3430
2026-04-16 14:45 6.18 1470 3690 (2011) 26 (1963) 1040 47 53 103 174 511 1580 2410 2960 3430
2026-04-16 13:45 6.18 1470 3690 (2011) 26 (1963) 1040 47 53 103 174 511 1580 2410 2960 3430
2026-04-16 12:45 6.16 1460 3690 (2011) 26 (1963) 1040 47 53 103 174 511 1580 2410 2960 3430
2026-04-16 11:45 6.05 1400 3690 (2011) 26 (1963) 1040 47 53 103 174 511 1580 2410 2960 3430
2026-04-16 10:45 5.41 1060 3690 (2011) 26 (1963) 1040 47 53 103 174 511 1580 2410 2960 3430
2026-04-16 09:45 5.34 1030 3690 (2011) 26 (1963) 1040 47 53 103 174 511 1580 2410 2960 3430
2026-04-16 08:45 5.00 870 3690 (2011) 26 (1963) 1040 47 53 103 174 511 1580 2410 2960 3430
2026-04-16 07:45 4.05 510 3690 (2011) 26 (1963) 1040 47 53 103 174 511 1580 2410 2960 3430
2026-04-16 06:45 4.05 510 3690 (2011) 26 (1963) 1040 47 53 103 174 511 1580 2410 2960 3430
2026-04-16 05:45 4.05 510 3690 (2011) 26 (1963) 1040 47 53 103 174 511 1580 2410 2960 3430
2026-04-16 04:45 4.04 507 3690 (2011) 26 (1963) 1040 47 53 103 174 511 1580 2410 2960 3430
2026-04-16 03:45 4.04 507 3690 (2011) 26 (1963) 1040 47 53 103 174 511 1580 2410 2960 3430
2026-04-16 02:45 4.04 507 3690 (2011) 26 (1963) 1040 47 53 103 174 511 1580 2410 2960 3430
2026-04-16 01:45 4.04 507 3690 (2011) 26 (1963) 1040 47 53 103 174 511 1580 2410 2960 3430
2026-04-16 00:45 4.04 507 3690 (2011) 26 (1963) 1040 47 53 103 174 511 1580 2410 2960 3430
2026-04-15 23:45 4.04 507 3690 (2011) 26 (1963) 1040 47 53 103 174 511 1580 2410 2960 3430
2026-04-15 22:45 4.04 507 3980 (1973) 26 (1963) 1020 46 53 100 140 507 1720 2390 2940 3360
2026-04-15 21:45 4.03 504 3980 (1973) 26 (1963) 1020 46 53 100 140 507 1720 2390 2940 3360
2026-04-15 20:45 4.03 504 3980 (1973) 26 (1963) 1020 46 53 100 140 507 1720 2390 2940 3360
2026-04-15 19:45 4.03 504 3980 (1973) 26 (1963) 1020 46 53 100 140 507 1720 2390 2940 3360
2026-04-15 18:45 4.02 500 3980 (1973) 26 (1963) 1020 46 53 100 140 507 1720 2390 2940 3360
2026-04-15 17:45 4.02 500 3980 (1973) 26 (1963) 1020 46 53 100 140 507 1720 2390 2940 3360
2026-04-15 16:45 4.02 500 3980 (1973) 26 (1963) 1020 46 53 100 140 507 1720 2390 2940 3360
2026-04-15 15:45 4.02 500 3980 (1973) 26 (1963) 1020 46 53 100 140 507 1720 2390 2940 3360
2026-04-15 14:45 4.02 500 3980 (1973) 26 (1963) 1020 46 53 100 140 507 1720 2390 2940 3360
2026-04-15 13:45 4.02 500 3980 (1973) 26 (1963) 1020 46 53 100 140 507 1720 2390 2940 3360
2026-04-15 12:45 4.02 500 3980 (1973) 26 (1963) 1020 46 53 100 140 507 1720 2390 2940 3360
2026-04-15 11:45 4.02 500 3980 (1973) 26 (1963) 1020 46 53 100 140 507 1720 2390 2940 3360
2026-04-15 10:45 4.02 500 3980 (1973) 26 (1963) 1020 46 53 100 140 507 1720 2390 2940 3360
2026-04-15 09:45 4.02 500 3980 (1973) 26 (1963) 1020 46 53 100 140 507 1720 2390 2940 3360
2026-04-15 08:45 4.02 500 3980 (1973) 26 (1963) 1020 46 53 100 140 507 1720 2390 2940 3360
2026-04-15 07:45 4.02 500 3980 (1973) 26 (1963) 1020 46 53 100 140 507 1720 2390 2940 3360
2026-04-15 06:45 4.02 500 3980 (1973) 26 (1963) 1020 46 53 100 140 507 1720 2390 2940 3360
2026-04-15 05:45 4.02 500 3980 (1973) 26 (1963) 1020 46 53 100 140 507 1720 2390 2940 3360
2026-04-15 04:45 4.02 500 3980 (1973) 26 (1963) 1020 46 53 100 140 507 1720 2390 2940 3360
2026-04-15 03:45 4.02 500 3980 (1973) 26 (1963) 1020 46 53 100 140 507 1720 2390 2940 3360
2026-04-15 02:45 4.02 500 3980 (1973) 26 (1963) 1020 46 53 100 140 507 1720 2390 2940 3360
2026-04-15 01:45 4.02 500 3980 (1973) 26 (1963) 1020 46 53 100 140 507 1720 2390 2940 3360
2026-04-15 00:45 4.02 500 3980 (1973) 26 (1963) 1020 46 53 100 140 507 1720 2390 2940 3360
2026-04-14 23:45 4.02 500 3980 (1973) 26 (1963) 1020 46 53 100 140 507 1720 2390 2940 3360
2026-04-14 22:45 4.02 500 4200 (1973) 25 (1963) 997 47 53 104 158 494 1620 2040 2980 3460
2026-04-14 21:45 4.02 500 4200 (1973) 25 (1963) 997 47 53 104 158 494 1620 2040 2980 3460
2026-04-14 20:45 4.02 500 4200 (1973) 25 (1963) 997 47 53 104 158 494 1620 2040 2980 3460
2026-04-14 19:45 4.01 497 4200 (1973) 25 (1963) 997 47 53 104 158 494 1620 2040 2980 3460
2026-04-14 18:45 4.01 497 4200 (1973) 25 (1963) 997 47 53 104 158 494 1620 2040 2980 3460
2026-04-14 17:45 4.01 497 4200 (1973) 25 (1963) 997 47 53 104 158 494 1620 2040 2980 3460
2026-04-14 16:45 4.01 497 4200 (1973) 25 (1963) 997 47 53 104 158 494 1620 2040 2980 3460
2026-04-14 15:45 4.02 500 4200 (1973) 25 (1963) 997 47 53 104 158 494 1620 2040 2980 3460
2026-04-14 14:45 4.01 497 4200 (1973) 25 (1963) 997 47 53 104 158 494 1620 2040 2980 3460
2026-04-14 13:45 4.02 500 4200 (1973) 25 (1963) 997 47 53 104 158 494 1620 2040 2980 3460
2026-04-14 12:45 4.02 500 4200 (1973) 25 (1963) 997 47 53 104 158 494 1620 2040 2980 3460
2026-04-14 11:45 4.02 500 4200 (1973) 25 (1963) 997 47 53 104 158 494 1620 2040 2980 3460
2026-04-14 09:45 4.02 500 4200 (1973) 25 (1963) 997 47 53 104 158 494 1620 2040 2980 3460
2026-04-14 08:45 4.02 500 4200 (1973) 25 (1963) 997 47 53 104 158 494 1620 2040 2980 3460
2026-04-14 07:45 4.02 500 4200 (1973) 25 (1963) 997 47 53 104 158 494 1620 2040 2980 3460
2026-04-14 06:45 4.02 500 4200 (1973) 25 (1963) 997 47 53 104 158 494 1620 2040 2980 3460
2026-04-14 05:45 4.02 500 4200 (1973) 25 (1963) 997 47 53 104 158 494 1620 2040 2980 3460
2026-04-14 04:45 4.02 500 4200 (1973) 25 (1963) 997 47 53 104 158 494 1620 2040 2980 3460
2026-04-14 03:45 4.02 500 4200 (1973) 25 (1963) 997 47 53 104 158 494 1620 2040 2980 3460
2026-04-14 02:45 4.02 500 4200 (1973) 25 (1963) 997 47 53 104 158 494 1620 2040 2980 3460
2026-04-14 01:45 4.02 500 4200 (1973) 25 (1963) 997 47 53 104 158 494 1620 2040 2980 3460
2026-04-14 00:45 4.02 500 4200 (1973) 25 (1963) 997 47 53 104 158 494 1620 2040 2980 3460
2026-04-13 23:45 4.01 497 4200 (1973) 25 (1963) 997 47 53 104 158 494 1620 2040 2980 3460
2026-04-13 22:45 4.02 500 4620 (1973) 25 (1963) 946 47 53 112 150 463 1410 1520 2880 3470
2026-04-13 21:45 4.01 497 4620 (1973) 25 (1963) 946 47 53 112 150 463 1410 1520 2880 3470
2026-04-13 20:45 4.02 500 4620 (1973) 25 (1963) 946 47 53 112 150 463 1410 1520 2880 3470
2026-04-13 19:45 4.02 500 4620 (1973) 25 (1963) 946 47 53 112 150 463 1410 1520 2880 3470
2026-04-13 18:45 4.02 500 4620 (1973) 25 (1963) 946 47 53 112 150 463 1410 1520 2880 3470
2026-04-13 17:45 4.02 500 4620 (1973) 25 (1963) 946 47 53 112 150 463 1410 1520 2880 3470
2026-04-13 16:45 4.02 500 4620 (1973) 25 (1963) 946 47 53 112 150 463 1410 1520 2880 3470
2026-04-13 15:45 4.02 500 4620 (1973) 25 (1963) 946 47 53 112 150 463 1410 1520 2880 3470
2026-04-13 14:45 4.02 500 4620 (1973) 25 (1963) 946 47 53 112 150 463 1410 1520 2880 3470
2026-04-13 13:45 4.02 500 4620 (1973) 25 (1963) 946 47 53 112 150 463 1410 1520 2880 3470
2026-04-13 12:45 4.02 500 4620 (1973) 25 (1963) 946 47 53 112 150 463 1410 1520 2880 3470
2026-04-13 11:45 4.02 500 4620 (1973) 25 (1963) 946 47 53 112 150 463 1410 1520 2880 3470
2026-04-13 10:45 4.02 500 4620 (1973) 25 (1963) 946 47 53 112 150 463 1410 1520 2880 3470
2026-04-13 09:45 4.02 500 4620 (1973) 25 (1963) 946 47 53 112 150 463 1410 1520 2880 3470
2026-04-13 08:45 4.02 500 4620 (1973) 25 (1963) 946 47 53 112 150 463 1410 1520 2880 3470
2026-04-13 07:45 4.02 500 4620 (1973) 25 (1963) 946 47 53 112 150 463 1410 1520 2880 3470
2026-04-13 06:45 4.02 500 4620 (1973) 25 (1963) 946 47 53 112 150 463 1410 1520 2880 3470
2026-04-13 05:45 4.02 500 4620 (1973) 25 (1963) 946 47 53 112 150 463 1410 1520 2880 3470
2026-04-13 04:45 4.02 500 4620 (1973) 25 (1963) 946 47 53 112 150 463 1410 1520 2880 3470
2026-04-13 03:45 4.02 500 4620 (1973) 25 (1963) 946 47 53 112 150 463 1410 1520 2880 3470
2026-04-13 02:45 4.02 500 4620 (1973) 25 (1963) 946 47 53 112 150 463 1410 1520 2880 3470
2026-04-13 01:45 4.02 500 4620 (1973) 25 (1963) 946 47 53 112 150 463 1410 1520 2880 3470
2026-04-13 00:45 4.02 500 4620 (1973) 25 (1963) 946 47 53 112 150 463 1410 1520 2880 3470
2026-04-12 23:45 4.01 497 4620 (1973) 25 (1963) 946 47 53 112 150 463 1410 1520 2880 3470
2026-04-12 22:45 4.01 497 4630 (1973) 25 (1963) 936 47 53 99 139 489 1270 1580 2680 3480
2026-04-12 21:45 4.02 500 4630 (1973) 25 (1963) 936 47 53 99 139 489 1270 1580 2680 3480
2026-04-12 20:45 4.02 500 4630 (1973) 25 (1963) 936 47 53 99 139 489 1270 1580 2680 3480
2026-04-12 19:45 4.02 500 4630 (1973) 25 (1963) 936 47 53 99 139 489 1270 1580 2680 3480
2026-04-12 18:45 4.02 500 4630 (1973) 25 (1963) 936 47 53 99 139 489 1270 1580 2680 3480
2026-04-12 17:45 4.02 500 4630 (1973) 25 (1963) 936 47 53 99 139 489 1270 1580 2680 3480
2026-04-12 16:45 4.02 500 4630 (1973) 25 (1963) 936 47 53 99 139 489 1270 1580 2680 3480
2026-04-12 15:45 4.02 500 4630 (1973) 25 (1963) 936 47 53 99 139 489 1270 1580 2680 3480
2026-04-12 14:45 4.02 500 4630 (1973) 25 (1963) 936 47 53 99 139 489 1270 1580 2680 3480
2026-04-12 13:45 4.02 500 4630 (1973) 25 (1963) 936 47 53 99 139 489 1270 1580 2680 3480
2026-04-12 12:45 4.02 500 4630 (1973) 25 (1963) 936 47 53 99 139 489 1270 1580 2680 3480
2026-04-12 11:45 4.02 500 4630 (1973) 25 (1963) 936 47 53 99 139 489 1270 1580 2680 3480
2026-04-12 10:45 4.02 500 4630 (1973) 25 (1963) 936 47 53 99 139 489 1270 1580 2680 3480
2026-04-12 09:45 4.02 500 4630 (1973) 25 (1963) 936 47 53 99 139 489 1270 1580 2680 3480
2026-04-12 08:45 4.02 500 4630 (1973) 25 (1963) 936 47 53 99 139 489 1270 1580 2680 3480
2026-04-12 07:45 4.02 500 4630 (1973) 25 (1963) 936 47 53 99 139 489 1270 1580 2680 3480
2026-04-12 06:45 4.02 500 4630 (1973) 25 (1963) 936 47 53 99 139 489 1270 1580 2680 3480
2026-04-12 05:45 4.02 500 4630 (1973) 25 (1963) 936 47 53 99 139 489 1270 1580 2680 3480
2026-04-12 04:45 4.02 500 4630 (1973) 25 (1963) 936 47 53 99 139 489 1270 1580 2680 3480
2026-04-12 03:45 4.02 500 4630 (1973) 25 (1963) 936 47 53 99 139 489 1270 1580 2680 3480
2026-04-12 02:45 4.02 500 4630 (1973) 25 (1963) 936 47 53 99 139 489 1270 1580 2680 3480
2026-04-12 01:45 4.02 500 4630 (1973) 25 (1963) 936 47 53 99 139 489 1270 1580 2680 3480
2026-04-12 00:45 4.02 500 4630 (1973) 25 (1963) 936 47 53 99 139 489 1270 1580 2680 3480
2026-04-11 23:45 4.02 500 4630 (1973) 25 (1963) 936 47 53 99 139 489 1270 1580 2680 3480
2026-04-11 22:45 4.02 500 4650 (1973) 25 (1963) 925 47 53 103 194 504 1480 1650 2500 3030
2026-04-11 21:45 4.02 500 4650 (1973) 25 (1963) 925 47 53 103 194 504 1480 1650 2500 3030
2026-04-11 20:45 4.02 500 4650 (1973) 25 (1963) 925 47 53 103 194 504 1480 1650 2500 3030
2026-04-11 19:45 4.02 500 4650 (1973) 25 (1963) 925 47 53 103 194 504 1480 1650 2500 3030
2026-04-11 18:45 4.02 500 4650 (1973) 25 (1963) 925 47 53 103 194 504 1480 1650 2500 3030
2026-04-11 17:45 4.02 500 4650 (1973) 25 (1963) 925 47 53 103 194 504 1480 1650 2500 3030
2026-04-11 16:45 4.02 500 4650 (1973) 25 (1963) 925 47 53 103 194 504 1480 1650 2500 3030
2026-04-11 15:45 4.02 500 4650 (1973) 25 (1963) 925 47 53 103 194 504 1480 1650 2500 3030
2026-04-11 14:45 4.02 500 4650 (1973) 25 (1963) 925 47 53 103 194 504 1480 1650 2500 3030
2026-04-11 13:45 4.02 500 4650 (1973) 25 (1963) 925 47 53 103 194 504 1480 1650 2500 3030
2026-04-11 12:45 4.02 500 4650 (1973) 25 (1963) 925 47 53 103 194 504 1480 1650 2500 3030
2026-04-11 11:45 4.02 500 4650 (1973) 25 (1963) 925 47 53 103 194 504 1480 1650 2500 3030
2026-04-11 10:45 4.02 500 4650 (1973) 25 (1963) 925 47 53 103 194 504 1480 1650 2500 3030
2026-04-11 09:45 4.02 500 4650 (1973) 25 (1963) 925 47 53 103 194 504 1480 1650 2500 3030
2026-04-11 08:45 4.02 500 4650 (1973) 25 (1963) 925 47 53 103 194 504 1480 1650 2500 3030
2026-04-11 07:45 4.02 500 4650 (1973) 25 (1963) 925 47 53 103 194 504 1480 1650 2500 3030
2026-04-11 06:45 4.02 500 4650 (1973) 25 (1963) 925 47 53 103 194 504 1480 1650 2500 3030
2026-04-11 05:45 4.02 500 4650 (1973) 25 (1963) 925 47 53 103 194 504 1480 1650 2500 3030
2026-04-11 04:45 4.02 500 4650 (1973) 25 (1963) 925 47 53 103 194 504 1480 1650 2500 3030
2026-04-11 03:45 4.02 500 4650 (1973) 25 (1963) 925 47 53 103 194 504 1480 1650 2500 3030
2026-04-11 02:45 4.02 500 4650 (1973) 25 (1963) 925 47 53 103 194 504 1480 1650 2500 3030
2026-04-11 01:45 4.02 500 4650 (1973) 25 (1963) 925 47 53 103 194 504 1480 1650 2500 3030
2026-04-11 00:45 4.02 500 4650 (1973) 25 (1963) 925 47 53 103 194 504 1480 1650 2500 3030
2026-04-10 23:45 4.02 500 4650 (1973) 25 (1963) 925 47 53 103 194 504 1480 1650 2500 3030
2026-04-10 22:45 4.02 500 4680 (1973) 25 (1963) 885 42 51 101 140 502 1320 1490 2380 3030
2026-04-10 21:45 4.02 500 4680 (1973) 25 (1963) 885 42 51 101 140 502 1320 1490 2380 3030
2026-04-10 20:45 4.02 500 4680 (1973) 25 (1963) 885 42 51 101 140 502 1320 1490 2380 3030
2026-04-10 19:45 4.02 500 4680 (1973) 25 (1963) 885 42 51 101 140 502 1320 1490 2380 3030
2026-04-10 18:45 4.02 500 4680 (1973) 25 (1963) 885 42 51 101 140 502 1320 1490 2380 3030
2026-04-10 17:45 4.02 500 4680 (1973) 25 (1963) 885 42 51 101 140 502 1320 1490 2380 3030
2026-04-10 16:45 4.02 500 4680 (1973) 25 (1963) 885 42 51 101 140 502 1320 1490 2380 3030
2026-04-10 15:45 4.03 504 4680 (1973) 25 (1963) 885 42 51 101 140 502 1320 1490 2380 3030
2026-04-10 14:45 4.03 504 4680 (1973) 25 (1963) 885 42 51 101 140 502 1320 1490 2380 3030
2026-04-10 13:45 4.03 504 4680 (1973) 25 (1963) 885 42 51 101 140 502 1320 1490 2380 3030
2026-04-10 12:45 4.03 504 4680 (1973) 25 (1963) 885 42 51 101 140 502 1320 1490 2380 3030
2026-04-10 11:45 4.03 504 4680 (1973) 25 (1963) 885 42 51 101 140 502 1320 1490 2380 3030
2026-04-10 10:45 4.03 504 4680 (1973) 25 (1963) 885 42 51 101 140 502 1320 1490 2380 3030
2026-04-10 09:45 4.03 504 4680 (1973) 25 (1963) 885 42 51 101 140 502 1320 1490 2380 3030
2026-04-10 08:45 4.03 504 4680 (1973) 25 (1963) 885 42 51 101 140 502 1320 1490 2380 3030
2026-04-10 07:45 4.02 500 4680 (1973) 25 (1963) 885 42 51 101 140 502 1320 1490 2380 3030
2026-04-10 06:45 4.02 500 4680 (1973) 25 (1963) 885 42 51 101 140 502 1320 1490 2380 3030
2026-04-10 05:45 4.01 497 4680 (1973) 25 (1963) 885 42 51 101 140 502 1320 1490 2380 3030
2026-04-10 04:45 4.01 497 4680 (1973) 25 (1963) 885 42 51 101 140 502 1320 1490 2380 3030
2026-04-10 03:45 4.01 497 4680 (1973) 25 (1963) 885 42 51 101 140 502 1320 1490 2380 3030
2026-04-10 02:45 4.01 497 4680 (1973) 25 (1963) 885 42 51 101 140 502 1320 1490 2380 3030
2026-04-10 01:45 4.01 497 4680 (1973) 25 (1963) 885 42 51 101 140 502 1320 1490 2380 3030
2026-04-10 00:45 4.02 500 4680 (1973) 25 (1963) 885 42 51 101 140 502 1320 1490 2380 3030
2026-04-09 23:45 4.02 500 4680 (1973) 25 (1963) 885 42 51 101 140 502 1320 1490 2380 3030
2026-04-09 22:45 4.01 497 3520 (1985) 24 (1963) 830 40 51 93 120 433 1260 1540 2320 2940
2026-04-09 21:45 4.01 497 3520 (1985) 24 (1963) 830 40 51 93 120 433 1260 1540 2320 2940
2026-04-09 20:45 4.02 500 3520 (1985) 24 (1963) 830 40 51 93 120 433 1260 1540 2320 2940
2026-04-09 19:45 4.01 497 3520 (1985) 24 (1963) 830 40 51 93 120 433 1260 1540 2320 2940
2026-04-09 18:45 4.01 497 3520 (1985) 24 (1963) 830 40 51 93 120 433 1260 1540 2320 2940
2026-04-09 17:45 4.02 500 3520 (1985) 24 (1963) 830 40 51 93 120 433 1260 1540 2320 2940
2026-04-09 16:45 4.02 500 3520 (1985) 24 (1963) 830 40 51 93 120 433 1260 1540 2320 2940
2026-04-09 15:45 4.02 500 3520 (1985) 24 (1963) 830 40 51 93 120 433 1260 1540 2320 2940
2026-04-09 14:45 4.02 500 3520 (1985) 24 (1963) 830 40 51 93 120 433 1260 1540 2320 2940
2026-04-09 13:45 4.02 500 3520 (1985) 24 (1963) 830 40 51 93 120 433 1260 1540 2320 2940
2026-04-09 12:45 4.02 500 3520 (1985) 24 (1963) 830 40 51 93 120 433 1260 1540 2320 2940
2026-04-09 11:45 4.02 500 3520 (1985) 24 (1963) 830 40 51 93 120 433 1260 1540 2320 2940
2026-04-09 10:45 4.02 500 3520 (1985) 24 (1963) 830 40 51 93 120 433 1260 1540 2320 2940
2026-04-09 09:45 4.02 500 3520 (1985) 24 (1963) 830 40 51 93 120 433 1260 1540 2320 2940
2026-04-09 08:45 4.02 500 3520 (1985) 24 (1963) 830 40 51 93 120 433 1260 1540 2320 2940
2026-04-09 07:45 4.02 500 3520 (1985) 24 (1963) 830 40 51 93 120 433 1260 1540 2320 2940
2026-04-09 06:45 4.02 500 3520 (1985) 24 (1963) 830 40 51 93 120 433 1260 1540 2320 2940
2026-04-09 05:45 4.02 500 3520 (1985) 24 (1963) 830 40 51 93 120 433 1260 1540 2320 2940
2026-04-09 04:45 4.02 500 3520 (1985) 24 (1963) 830 40 51 93 120 433 1260 1540 2320 2940
2026-04-09 03:45 4.02 500 3520 (1985) 24 (1963) 830 40 51 93 120 433 1260 1540 2320 2940
2026-04-09 02:45 4.02 500 3520 (1985) 24 (1963) 830 40 51 93 120 433 1260 1540 2320 2940
2026-04-09 01:45 4.02 500 3520 (1985) 24 (1963) 830 40 51 93 120 433 1260 1540 2320 2940
2026-04-09 00:45 4.02 500 3520 (1985) 24 (1963) 830 40 51 93 120 433 1260 1540 2320 2940
2026-04-08 23:45 4.02 500 3520 (1985) 24 (1963) 830 40 51 93 120 433 1260 1540 2320 2940
2026-04-08 22:45 4.02 500 3540 (1985) 25 (1963) 797 39 50 90 102 423 1070 1280 2650 2940
2026-04-08 21:45 4.02 500 3540 (1985) 25 (1963) 797 39 50 90 102 423 1070 1280 2650 2940
2026-04-08 20:45 4.02 500 3540 (1985) 25 (1963) 797 39 50 90 102 423 1070 1280 2650 2940
2026-04-08 19:45 4.02 500 3540 (1985) 25 (1963) 797 39 50 90 102 423 1070 1280 2650 2940
2026-04-08 18:45 4.02 500 3540 (1985) 25 (1963) 797 39 50 90 102 423 1070 1280 2650 2940
2026-04-08 17:45 4.02 481 3540 (1985) 25 (1963) 797 39 50 90 102 423 1070 1280 2650 2940
2026-04-08 16:45 4.02 481 3540 (1985) 25 (1963) 797 39 50 90 102 423 1070 1280 2650 2940
2026-04-08 15:45 4.02 481 3540 (1985) 25 (1963) 797 39 50 90 102 423 1070 1280 2650 2940
2026-04-08 14:45 4.02 481 3540 (1985) 25 (1963) 797 39 50 90 102 423 1070 1280 2650 2940
2026-04-08 13:45 4.02 481 3540 (1985) 25 (1963) 797 39 50 90 102 423 1070 1280 2650 2940
2026-04-08 12:45 4.02 481 3540 (1985) 25 (1963) 797 39 50 90 102 423 1070 1280 2650 2940
2026-04-08 11:45 4.02 481 3540 (1985) 25 (1963) 797 39 50 90 102 423 1070 1280 2650 2940
2026-04-08 10:45 4.02 481 3540 (1985) 25 (1963) 797 39 50 90 102 423 1070 1280 2650 2940
2026-04-08 09:45 4.02 481 3540 (1985) 25 (1963) 797 39 50 90 102 423 1070 1280 2650 2940
2026-04-08 08:45 4.02 481 3540 (1985) 25 (1963) 797 39 50 90 102 423 1070 1280 2650 2940
2026-04-08 07:45 4.02 481 3540 (1985) 25 (1963) 797 39 50 90 102 423 1070 1280 2650 2940
2026-04-08 06:45 4.02 481 3540 (1985) 25 (1963) 797 39 50 90 102 423 1070 1280 2650 2940
2026-04-08 05:45 4.02 481 3540 (1985) 25 (1963) 797 39 50 90 102 423 1070 1280 2650 2940
2026-04-08 04:45 4.02 481 3540 (1985) 25 (1963) 797 39 50 90 102 423 1070 1280 2650 2940
2026-04-08 03:45 4.02 481 3540 (1985) 25 (1963) 797 39 50 90 102 423 1070 1280 2650 2940
2026-04-08 02:45 4.02 481 3540 (1985) 25 (1963) 797 39 50 90 102 423 1070 1280 2650 2940
2026-04-08 01:45 4.02 481 3540 (1985) 25 (1963) 797 39 50 90 102 423 1070 1280 2650 2940
2026-04-08 00:45 4.02 481 3540 (1985) 25 (1963) 797 39 50 90 102 423 1070 1280 2650 2940
2026-04-07 23:45 4.02 481 3540 (1985) 25 (1963) 797 39 50 90 102 423 1070 1280 2650 2940
2026-04-07 22:45 4.02 481 3550 (1985) 25 (1963) 735 38 50 90 101 422 918 1000 2780 2970
2026-04-07 21:45 4.02 481 3550 (1985) 25 (1963) 735 38 50 90 101 422 918 1000 2780 2970
2026-04-07 20:45 4.02 481 3550 (1985) 25 (1963) 735 38 50 90 101 422 918 1000 2780 2970
2026-04-07 19:45 4.02 481 3550 (1985) 25 (1963) 735 38 50 90 101 422 918 1000 2780 2970
2026-04-07 18:45 4.02 481 3550 (1985) 25 (1963) 735 38 50 90 101 422 918 1000 2780 2970
2026-04-07 17:45 4.02 481 3550 (1985) 25 (1963) 735 38 50 90 101 422 918 1000 2780 2970
2026-04-07 16:45 4.02 481 3550 (1985) 25 (1963) 735 38 50 90 101 422 918 1000 2780 2970
2026-04-07 15:45 4.02 481 3550 (1985) 25 (1963) 735 38 50 90 101 422 918 1000 2780 2970
2026-04-07 14:45 4.02 481 3550 (1985) 25 (1963) 735 38 50 90 101 422 918 1000 2780 2970
2026-04-07 13:45 4.02 481 3550 (1985) 25 (1963) 735 38 50 90 101 422 918 1000 2780 2970
2026-04-07 12:45 4.02 481 3550 (1985) 25 (1963) 735 38 50 90 101 422 918 1000 2780 2970
2026-04-07 11:45 4.02 481 3550 (1985) 25 (1963) 735 38 50 90 101 422 918 1000 2780 2970
2026-04-07 10:45 4.02 481 3550 (1985) 25 (1963) 735 38 50 90 101 422 918 1000 2780 2970
2026-04-07 09:45 4.03 484 3550 (1985) 25 (1963) 735 38 50 90 101 422 918 1000 2780 2970
2026-04-07 08:45 4.03 484 3550 (1985) 25 (1963) 735 38 50 90 101 422 918 1000 2780 2970
2026-04-07 07:45 4.03 484 3550 (1985) 25 (1963) 735 38 50 90 101 422 918 1000 2780 2970
2026-04-07 06:45 4.03 484 3550 (1985) 25 (1963) 735 38 50 90 101 422 918 1000 2780 2970
2026-04-07 05:45 4.03 484 3550 (1985) 25 (1963) 735 38 50 90 101 422 918 1000 2780 2970
2026-04-07 04:45 4.03 484 3550 (1985) 25 (1963) 735 38 50 90 101 422 918 1000 2780 2970
2026-04-07 03:45 4.03 484 3550 (1985) 25 (1963) 735 38 50 90 101 422 918 1000 2780 2970
2026-04-07 02:45 4.03 484 3550 (1985) 25 (1963) 735 38 50 90 101 422 918 1000 2780 2970
2026-04-07 01:45 4.03 484 3550 (1985) 25 (1963) 735 38 50 90 101 422 918 1000 2780 2970
2026-04-07 00:45 4.03 484 3550 (1985) 25 (1963) 735 38 50 90 101 422 918 1000 2780 2970
2026-04-06 23:45 4.03 484 3550 (1985) 25 (1963) 735 38 50 90 101 422 918 1000 2780 2970
2026-04-06 22:45 4.03 484 3560 (1985) 2 (2011) 716 31 43 60 96 335 913 1000 2530 2950
2026-04-06 21:45 4.03 484 3560 (1985) 2 (2011) 716 31 43 60 96 335 913 1000 2530 2950
2026-04-06 20:45 4.03 484 3560 (1985) 2 (2011) 716 31 43 60 96 335 913 1000 2530 2950
2026-04-06 19:45 4.03 484 3560 (1985) 2 (2011) 716 31 43 60 96 335 913 1000 2530 2950
2026-04-06 18:45 4.03 484 3560 (1985) 2 (2011) 716 31 43 60 96 335 913 1000 2530 2950
2026-04-06 17:45 4.03 484 3560 (1985) 2 (2011) 716 31 43 60 96 335 913 1000 2530 2950
2026-04-06 16:45 4.02 481 3560 (1985) 2 (2011) 716 31 43 60 96 335 913 1000 2530 2950
2026-04-06 15:45 4.02 481 3560 (1985) 2 (2011) 716 31 43 60 96 335 913 1000 2530 2950
2026-04-06 14:45 3.98 469 3560 (1985) 2 (2011) 716 31 43 60 96 335 913 1000 2530 2950
2026-04-06 13:45 3.82 421 3560 (1985) 2 (2011) 716 31 43 60 96 335 913 1000 2530 2950
2026-04-06 12:45 3.11 242 3560 (1985) 2 (2011) 716 31 43 60 96 335 913 1000 2530 2950
2026-04-06 11:45 3.03 226 3560 (1985) 2 (2011) 716 31 43 60 96 335 913 1000 2530 2950
2026-04-06 10:45 3.03 226 3560 (1985) 2 (2011) 716 31 43 60 96 335 913 1000 2530 2950
2026-04-06 09:45 3.03 226 3560 (1985) 2 (2011) 716 31 43 60 96 335 913 1000 2530 2950
2026-04-06 08:45 3.03 226 3560 (1985) 2 (2011) 716 31 43 60 96 335 913 1000 2530 2950
2026-04-06 07:45 3.03 226 3560 (1985) 2 (2011) 716 31 43 60 96 335 913 1000 2530 2950
2026-04-06 06:45 3.03 226 3560 (1985) 2 (2011) 716 31 43 60 96 335 913 1000 2530 2950
2026-04-06 05:45 3.03 226 3560 (1985) 2 (2011) 716 31 43 60 96 335 913 1000 2530 2950
2026-04-06 04:45 3.03 226 3560 (1985) 2 (2011) 716 31 43 60 96 335 913 1000 2530 2950
2026-04-06 03:45 3.03 226 3560 (1985) 2 (2011) 716 31 43 60 96 335 913 1000 2530 2950
2026-04-06 02:45 3.03 226 3560 (1985) 2 (2011) 716 31 43 60 96 335 913 1000 2530 2950
2026-04-06 01:45 3.03 226 3560 (1985) 2 (2011) 716 31 43 60 96 335 913 1000 2530 2950
2026-04-06 00:45 3.03 226 3560 (1985) 2 (2011) 716 31 43 60 96 335 913 1000 2530 2950
2026-04-05 23:45 3.03 226 3560 (1985) 2 (2011) 716 31 43 60 96 335 913 1000 2530 2950
2026-04-05 22:45 3.03 226 3550 (1985) 2 (2011) 751 26 43 88 96 332 967 1290 2690 2950
2026-04-05 21:45 3.03 226 3550 (1985) 2 (2011) 751 26 43 88 96 332 967 1290 2690 2950
2026-04-05 20:45 3.03 226 3550 (1985) 2 (2011) 751 26 43 88 96 332 967 1290 2690 2950
2026-04-05 19:45 3.03 226 3550 (1985) 2 (2011) 751 26 43 88 96 332 967 1290 2690 2950
2026-04-05 18:45 3.03 226 3550 (1985) 2 (2011) 751 26 43 88 96 332 967 1290 2690 2950
2026-04-05 17:45 3.03 226 3550 (1985) 2 (2011) 751 26 43 88 96 332 967 1290 2690 2950
2026-04-05 16:45 3.01 222 3550 (1985) 2 (2011) 751 26 43 88 96 332 967 1290 2690 2950
2026-04-05 15:45 2.98 216 3550 (1985) 2 (2011) 751 26 43 88 96 332 967 1290 2690 2950
2026-04-05 14:45 2.86 192 3550 (1985) 2 (2011) 751 26 43 88 96 332 967 1290 2690 2950
2026-04-05 13:45 2.60 147 3550 (1985) 2 (2011) 751 26 43 88 96 332 967 1290 2690 2950
2026-04-05 12:45 1.82 50 3550 (1985) 2 (2011) 751 26 43 88 96 332 967 1290 2690 2950
2026-04-05 11:45 1.82 50 3550 (1985) 2 (2011) 751 26 43 88 96 332 967 1290 2690 2950
2026-04-05 10:45 1.82 50 3550 (1985) 2 (2011) 751 26 43 88 96 332 967 1290 2690 2950
2026-04-05 09:45 1.82 50 3550 (1985) 2 (2011) 751 26 43 88 96 332 967 1290 2690 2950
2026-04-05 08:45 1.82 50 3550 (1985) 2 (2011) 751 26 43 88 96 332 967 1290 2690 2950
2026-04-05 07:45 1.83 51 3550 (1985) 2 (2011) 751 26 43 88 96 332 967 1290 2690 2950
2026-04-05 06:45 1.83 51 3550 (1985) 2 (2011) 751 26 43 88 96 332 967 1290 2690 2950
2026-04-05 05:45 1.83 51 3550 (1985) 2 (2011) 751 26 43 88 96 332 967 1290 2690 2950
2026-04-05 04:45 1.83 51 3550 (1985) 2 (2011) 751 26 43 88 96 332 967 1290 2690 2950
2026-04-05 03:45 1.83 51 3550 (1985) 2 (2011) 751 26 43 88 96 332 967 1290 2690 2950
2026-04-05 02:45 1.83 51 3550 (1985) 2 (2011) 751 26 43 88 96 332 967 1290 2690 2950
2026-04-05 01:45 1.83 51 3550 (1985) 2 (2011) 751 26 43 88 96 332 967 1290 2690 2950
2026-04-05 00:45 1.83 51 3550 (1985) 2 (2011) 751 26 43 88 96 332 967 1290 2690 2950
2026-04-04 23:45 1.83 51 3550 (1985) 2 (2011) 751 26 43 88 96 332 967 1290 2690 2950
2026-04-04 22:45 1.83 51 3550 (1985) 2 (2011) 836 26 43 72 92 483 1200 1840 2630 2990
2026-04-04 21:45 1.83 51 3550 (1985) 2 (2011) 836 26 43 72 92 483 1200 1840 2630 2990
2026-04-04 20:45 1.83 51 3550 (1985) 2 (2011) 836 26 43 72 92 483 1200 1840 2630 2990
2026-04-04 19:45 1.83 51 3550 (1985) 2 (2011) 836 26 43 72 92 483 1200 1840 2630 2990
2026-04-04 18:45 1.83 51 3550 (1985) 2 (2011) 836 26 43 72 92 483 1200 1840 2630 2990
2026-04-04 17:45 1.83 51 3550 (1985) 2 (2011) 836 26 43 72 92 483 1200 1840 2630 2990
2026-04-04 16:45 1.83 51 3550 (1985) 2 (2011) 836 26 43 72 92 483 1200 1840 2630 2990
2026-04-04 15:45 1.83 51 3550 (1985) 2 (2011) 836 26 43 72 92 483 1200 1840 2630 2990
2026-04-04 14:45 1.83 51 3550 (1985) 2 (2011) 836 26 43 72 92 483 1200 1840 2630 2990
2026-04-04 13:45 1.83 51 3550 (1985) 2 (2011) 836 26 43 72 92 483 1200 1840 2630 2990
2026-04-04 12:45 1.84 52 3550 (1985) 2 (2011) 836 26 43 72 92 483 1200 1840 2630 2990
2026-04-04 11:45 1.84 52 3550 (1985) 2 (2011) 836 26 43 72 92 483 1200 1840 2630 2990
2026-04-04 10:45 1.84 52 3550 (1985) 2 (2011) 836 26 43 72 92 483 1200 1840 2630 2990
2026-04-04 09:45 1.85 53 3550 (1985) 2 (2011) 836 26 43 72 92 483 1200 1840 2630 2990
2026-04-04 08:45 1.86 54 3550 (1985) 2 (2011) 836 26 43 72 92 483 1200 1840 2630 2990
2026-04-04 07:45 1.86 54 3550 (1985) 2 (2011) 836 26 43 72 92 483 1200 1840 2630 2990
2026-04-04 06:45 1.87 55 3550 (1985) 2 (2011) 836 26 43 72 92 483 1200 1840 2630 2990
2026-04-04 05:45 1.87 55 3550 (1985) 2 (2011) 836 26 43 72 92 483 1200 1840 2630 2990
2026-04-04 04:45 1.85 53 3550 (1985) 2 (2011) 836 26 43 72 92 483 1200 1840 2630 2990
2026-04-04 03:45 1.84 52 3550 (1985) 2 (2011) 836 26 43 72 92 483 1200 1840 2630 2990
2026-04-04 02:45 1.83 51 3550 (1985) 2 (2011) 836 26 43 72 92 483 1200 1840 2630 2990
2026-04-04 01:45 1.82 50 3550 (1985) 2 (2011) 836 26 43 72 92 483 1200 1840 2630 2990
2026-04-04 00:45 1.82 50 3550 (1985) 2 (2011) 836 26 43 72 92 483 1200 1840 2630 2990
2026-04-03 23:45 1.83 51 3550 (1985) 2 (2011) 836 26 43 72 92 483 1200 1840 2630 2990

A total of 752 rows are displayed for years 1961 through 2025.